Sac River (Missouri), Route J (06919020)

StateMissouriLatestPoor (216 cfs)
RiverSac RiverRatingObservedEstimated
Updated2020-08-06 10:45 (45 minutes ago)Flood - The river is flooding. Obstacles can be treacherous or deadly. The river should be avoided at this stage for casual trips and definitely for the inexperienced. Trips should be attempted only with protective gear and equipment.Flood(none)4493
Discharge216 cfs (median: 950 cfs)High - The river is high and potentially dangerous, especially for the young and / or inexperienced. Normal stream obstacles are sometimes difficult to navigate. Extended distances can be attempted, but canoe travel may not be advisable.High(none)1358
Height6.47 feetGood - Conditions are ideal for a canoe or kayak. Boats typically will drag on fewer than one-quarter of riffles, if at all, and portages are unnecessary or rare. Normal float lengths can be attempted without a problem.Good(none)1067
TrendFalling (falling over 24 hours)Low - River is low but can still be floated. Some riffles are okay but most come with significant dragging and might need a portage. Float lengths should be reduced to accommodate low flow, dragging, and portages.Low(none)931
USGSExternal icon USGS Site (External icon Google Maps)Poor - River is too low to float comfortably. Most or all riffles will drag or must be portaged and some obstacles (such as slick shelf rock) cause undue problems. Avoid the river at this stage for casual paddling trips.Poor(none)61

Trending Data

Plot Image

Trips for Sac River (Missouri), Route J (06919020)

DateStartEndDistanceConditionDischargeHeightFishingDetails

A total of 0 rows are displayed.

Condition Descriptions

Fishing Conditions

Fish Species

Notes

Classic Trip List

The classic River Trips application is still available for use. It is updated with the new system using a data retrofit. It is no longer maintained. The original River Trips application is no longer updated (as of 1 Dec 2016) but can be checked for errors or for the condition of the data before it was converted to the new system.

Gauge Data Table

ObservationHeightDischargeMaximum
Discharge
Minimum
Discharge
Mean
Discharge
P05P10P20P25P50
(Median)
P75P80P90P95
2020-08-06 10:45 6.47 216 6060 (2019) 44 (2014) 1350 63 67 91 156 950 1910 2160 3600 4850
2020-08-06 09:45 6.52 228 6060 (2019) 44 (2014) 1350 63 67 91 156 950 1910 2160 3600 4850
2020-08-06 08:45 6.61 249 6060 (2019) 44 (2014) 1350 63 67 91 156 950 1910 2160 3600 4850
2020-08-06 07:45 6.73 279 6060 (2019) 44 (2014) 1350 63 67 91 156 950 1910 2160 3600 4850
2020-08-06 06:45 6.89 322 6060 (2019) 44 (2014) 1350 63 67 91 156 950 1910 2160 3600 4850
2020-08-06 05:45 7.11 375 6060 (2019) 44 (2014) 1350 63 67 91 156 950 1910 2160 3600 4850
2020-08-06 04:45 7.40 450 6060 (2019) 44 (2014) 1350 63 67 91 156 950 1910 2160 3600 4850
2020-08-06 03:45 7.77 553 6060 (2019) 44 (2014) 1350 63 67 91 156 950 1910 2160 3600 4850
2020-08-06 02:45 8.24 697 6060 (2019) 44 (2014) 1350 63 67 91 156 950 1910 2160 3600 4850
2020-08-06 01:45 8.81 888 6060 (2019) 44 (2014) 1350 63 67 91 156 950 1910 2160 3600 4850
2020-08-06 00:45 9.48 1140 6060 (2019) 44 (2014) 1350 63 67 91 156 950 1910 2160 3600 4850
2020-08-05 23:45 10.27 1470 6050 (2019) 41 (2014) 1280 63 70 92 132 672 1750 1880 4340 5480
2020-08-05 22:45 11.18 1890 6050 (2019) 41 (2014) 1280 63 70 92 132 672 1750 1880 4340 5480
2020-08-05 21:45 12.23 2470 6050 (2019) 41 (2014) 1280 63 70 92 132 672 1750 1880 4340 5480
2020-08-05 20:45 13.37 3170 6050 (2019) 41 (2014) 1280 63 70 92 132 672 1750 1880 4340 5480
2020-08-05 19:45 14.51 3940 6050 (2019) 41 (2014) 1280 63 70 92 132 672 1750 1880 4340 5480
2020-08-05 18:45 15.30 4520 6050 (2019) 41 (2014) 1280 63 70 92 132 672 1750 1880 4340 5480
2020-08-05 17:45 14.30 3790 6050 (2019) 41 (2014) 1280 63 70 92 132 672 1750 1880 4340 5480
2020-08-05 16:45 11.75 2200 6050 (2019) 41 (2014) 1280 63 70 92 132 672 1750 1880 4340 5480
2020-08-05 15:45 7.33 431 6050 (2019) 41 (2014) 1280 63 70 92 132 672 1750 1880 4340 5480
2020-08-05 14:45 6.38 195 6050 (2019) 41 (2014) 1280 63 70 92 132 672 1750 1880 4340 5480
2020-08-05 13:45 6.40 200 6050 (2019) 41 (2014) 1280 63 70 92 132 672 1750 1880 4340 5480
2020-08-05 12:45 6.42 205 6050 (2019) 41 (2014) 1280 63 70 92 132 672 1750 1880 4340 5480
2020-08-05 11:45 6.45 212 6050 (2019) 41 (2014) 1280 63 70 92 132 672 1750 1880 4340 5480
2020-08-05 10:45 6.48 219 6050 (2019) 41 (2014) 1280 63 70 92 132 672 1750 1880 4340 5480
2020-08-05 09:45 6.54 233 6050 (2019) 41 (2014) 1280 63 70 92 132 672 1750 1880 4340 5480
2020-08-05 08:45 6.61 249 6050 (2019) 41 (2014) 1280 63 70 92 132 672 1750 1880 4340 5480
2020-08-05 07:45 6.70 271 6050 (2019) 41 (2014) 1280 63 70 92 132 672 1750 1880 4340 5480
2020-08-05 06:45 6.84 308 6050 (2019) 41 (2014) 1280 63 70 92 132 672 1750 1880 4340 5480
2020-08-05 05:45 7.03 355 6050 (2019) 41 (2014) 1280 63 70 92 132 672 1750 1880 4340 5480
2020-08-05 04:45 7.29 421 6050 (2019) 41 (2014) 1280 63 70 92 132 672 1750 1880 4340 5480
2020-08-05 03:45 7.62 511 6050 (2019) 41 (2014) 1280 63 70 92 132 672 1750 1880 4340 5480
2020-08-05 02:45 8.04 634 6050 (2019) 41 (2014) 1280 63 70 92 132 672 1750 1880 4340 5480
2020-08-05 01:45 8.55 799 6050 (2019) 41 (2014) 1280 63 70 92 132 672 1750 1880 4340 5480
2020-08-05 00:45 9.17 1020 6050 (2019) 41 (2014) 1280 63 70 92 132 672 1750 1880 4340 5480
2020-08-04 23:45 9.89 1300 6050 (2019) 42 (2014) 1380 52 64 96 196 947 1880 2190 3720 5580
2020-08-04 22:45 10.72 1670 6050 (2019) 42 (2014) 1380 52 64 96 196 947 1880 2190 3720 5580
2020-08-04 21:45 11.69 2160 6050 (2019) 42 (2014) 1380 52 64 96 196 947 1880 2190 3720 5580
2020-08-04 20:45 12.72 2760 6050 (2019) 42 (2014) 1380 52 64 96 196 947 1880 2190 3720 5580
2020-08-04 19:45 13.71 3390 6050 (2019) 42 (2014) 1380 52 64 96 196 947 1880 2190 3720 5580
2020-08-04 18:45 14.12 3670 6050 (2019) 42 (2014) 1380 52 64 96 196 947 1880 2190 3720 5580
2020-08-04 17:45 11.82 2230 6050 (2019) 42 (2014) 1380 52 64 96 196 947 1880 2190 3720 5580
2020-08-04 16:45 7.34 434 6050 (2019) 42 (2014) 1380 52 64 96 196 947 1880 2190 3720 5580
2020-08-04 15:45 6.38 195 6050 (2019) 42 (2014) 1380 52 64 96 196 947 1880 2190 3720 5580
2020-08-04 14:45 6.39 198 6050 (2019) 42 (2014) 1380 52 64 96 196 947 1880 2190 3720 5580
2020-08-04 13:45 6.40 200 6050 (2019) 42 (2014) 1380 52 64 96 196 947 1880 2190 3720 5580
2020-08-04 12:45 6.41 202 6050 (2019) 42 (2014) 1380 52 64 96 196 947 1880 2190 3720 5580
2020-08-04 11:45 6.43 207 6050 (2019) 42 (2014) 1380 52 64 96 196 947 1880 2190 3720 5580
2020-08-04 10:45 6.45 212 6050 (2019) 42 (2014) 1380 52 64 96 196 947 1880 2190 3720 5580
2020-08-04 09:45 6.48 219 6050 (2019) 42 (2014) 1380 52 64 96 196 947 1880 2190 3720 5580
2020-08-04 08:45 6.52 228 6050 (2019) 42 (2014) 1380 52 64 96 196 947 1880 2190 3720 5580
2020-08-04 07:45 6.57 240 6050 (2019) 42 (2014) 1380 52 64 96 196 947 1880 2190 3720 5580
2020-08-04 06:45 6.64 256 6050 (2019) 42 (2014) 1380 52 64 96 196 947 1880 2190 3720 5580
2020-08-04 05:45 6.75 284 6050 (2019) 42 (2014) 1380 52 64 96 196 947 1880 2190 3720 5580
2020-08-04 04:45 6.91 326 6050 (2019) 42 (2014) 1380 52 64 96 196 947 1880 2190 3720 5580
2020-08-04 03:45 7.12 377 6050 (2019) 42 (2014) 1380 52 64 96 196 947 1880 2190 3720 5580
2020-08-04 02:45 7.40 450 6050 (2019) 42 (2014) 1380 52 64 96 196 947 1880 2190 3720 5580
2020-08-04 01:45 7.76 551 6050 (2019) 42 (2014) 1380 52 64 96 196 947 1880 2190 3720 5580
2020-08-04 00:45 8.21 687 6050 (2019) 42 (2014) 1380 52 64 96 196 947 1880 2190 3720 5580
2020-08-03 23:45 8.75 867 6130 (2019) 42 (2014) 1340 52 59 77 90 1090 1690 2040 3500 5260
2020-08-03 22:45 9.38 1100 6130 (2019) 42 (2014) 1340 52 59 77 90 1090 1690 2040 3500 5260
2020-08-03 21:45 10.09 1390 6130 (2019) 42 (2014) 1340 52 59 77 90 1090 1690 2040 3500 5260
2020-08-03 20:45 10.90 1750 6130 (2019) 42 (2014) 1340 52 59 77 90 1090 1690 2040 3500 5260
2020-08-03 19:45 11.75 2200 6130 (2019) 42 (2014) 1340 52 59 77 90 1090 1690 2040 3500 5260
2020-08-03 18:45 12.44 2590 6130 (2019) 42 (2014) 1340 52 59 77 90 1090 1690 2040 3500 5260
2020-08-03 17:45 11.56 2090 6130 (2019) 42 (2014) 1340 52 59 77 90 1090 1690 2040 3500 5260
2020-08-03 16:45 7.24 408 6130 (2019) 42 (2014) 1340 52 59 77 90 1090 1690 2040 3500 5260
2020-08-03 15:45 6.38 195 6130 (2019) 42 (2014) 1340 52 59 77 90 1090 1690 2040 3500 5260
2020-08-03 14:45 6.39 198 6130 (2019) 42 (2014) 1340 52 59 77 90 1090 1690 2040 3500 5260
2020-08-03 13:45 6.40 200 6130 (2019) 42 (2014) 1340 52 59 77 90 1090 1690 2040 3500 5260
2020-08-03 12:45 6.41 202 6130 (2019) 42 (2014) 1340 52 59 77 90 1090 1690 2040 3500 5260
2020-08-03 11:45 6.41 202 6130 (2019) 42 (2014) 1340 52 59 77 90 1090 1690 2040 3500 5260
2020-08-03 10:45 6.42 205 6130 (2019) 42 (2014) 1340 52 59 77 90 1090 1690 2040 3500 5260
2020-08-03 09:45 6.42 205 6130 (2019) 42 (2014) 1340 52 59 77 90 1090 1690 2040 3500 5260
2020-08-03 08:45 6.42 205 6130 (2019) 42 (2014) 1340 52 59 77 90 1090 1690 2040 3500 5260
2020-08-03 07:45 6.42 205 6130 (2019) 42 (2014) 1340 52 59 77 90 1090 1690 2040 3500 5260
2020-08-03 06:45 6.41 202 6130 (2019) 42 (2014) 1340 52 59 77 90 1090 1690 2040 3500 5260
2020-08-03 05:45 6.41 202 6130 (2019) 42 (2014) 1340 52 59 77 90 1090 1690 2040 3500 5260
2020-08-03 04:45 6.41 202 6130 (2019) 42 (2014) 1340 52 59 77 90 1090 1690 2040 3500 5260
2020-08-03 03:45 6.41 202 6130 (2019) 42 (2014) 1340 52 59 77 90 1090 1690 2040 3500 5260
2020-08-03 02:45 6.40 200 6130 (2019) 42 (2014) 1340 52 59 77 90 1090 1690 2040 3500 5260
2020-08-03 01:45 6.40 200 6130 (2019) 42 (2014) 1340 52 59 77 90 1090 1690 2040 3500 5260
2020-08-03 00:45 6.40 200 6130 (2019) 42 (2014) 1340 52 59 77 90 1090 1690 2040 3500 5260
2020-08-02 23:45 6.40 200 6020 (2019) 40 (2014) 1220 52 64 94 104 684 1620 1850 3640 5290
2020-08-02 22:45 6.40 200 6020 (2019) 40 (2014) 1220 52 64 94 104 684 1620 1850 3640 5290
2020-08-02 21:45 6.41 202 6020 (2019) 40 (2014) 1220 52 64 94 104 684 1620 1850 3640 5290
2020-08-02 20:45 6.41 202 6020 (2019) 40 (2014) 1220 52 64 94 104 684 1620 1850 3640 5290
2020-08-02 19:45 6.42 205 6020 (2019) 40 (2014) 1220 52 64 94 104 684 1620 1850 3640 5290
2020-08-02 18:45 6.43 207 6020 (2019) 40 (2014) 1220 52 64 94 104 684 1620 1850 3640 5290
2020-08-02 17:45 6.44 209 6020 (2019) 40 (2014) 1220 52 64 94 104 684 1620 1850 3640 5290
2020-08-02 16:45 6.45 212 6020 (2019) 40 (2014) 1220 52 64 94 104 684 1620 1850 3640 5290
2020-08-02 15:45 6.46 214 6020 (2019) 40 (2014) 1220 52 64 94 104 684 1620 1850 3640 5290
2020-08-02 14:45 6.47 216 6020 (2019) 40 (2014) 1220 52 64 94 104 684 1620 1850 3640 5290
2020-08-02 13:45 6.48 219 6020 (2019) 40 (2014) 1220 52 64 94 104 684 1620 1850 3640 5290
2020-08-02 12:45 6.50 223 6020 (2019) 40 (2014) 1220 52 64 94 104 684 1620 1850 3640 5290
2020-08-02 11:45 6.50 223 6020 (2019) 40 (2014) 1220 52 64 94 104 684 1620 1850 3640 5290
2020-08-02 10:45 6.52 228 6020 (2019) 40 (2014) 1220 52 64 94 104 684 1620 1850 3640 5290
2020-08-02 09:45 6.52 228 6020 (2019) 40 (2014) 1220 52 64 94 104 684 1620 1850 3640 5290
2020-08-02 08:45 6.53 230 6020 (2019) 40 (2014) 1220 52 64 94 104 684 1620 1850 3640 5290
2020-08-02 07:45 6.54 233 6020 (2019) 40 (2014) 1220 52 64 94 104 684 1620 1850 3640 5290
2020-08-02 06:45 6.55 235 6020 (2019) 40 (2014) 1220 52 64 94 104 684 1620 1850 3640 5290
2020-08-02 05:45 6.56 237 6020 (2019) 40 (2014) 1220 52 64 94 104 684 1620 1850 3640 5290
2020-08-02 04:45 6.57 240 6020 (2019) 40 (2014) 1220 52 64 94 104 684 1620 1850 3640 5290
2020-08-02 03:45 6.58 242 6020 (2019) 40 (2014) 1220 52 64 94 104 684 1620 1850 3640 5290
2020-08-02 02:45 6.59 244 6020 (2019) 40 (2014) 1220 52 64 94 104 684 1620 1850 3640 5290
2020-08-02 01:45 6.60 247 6020 (2019) 40 (2014) 1220 52 64 94 104 684 1620 1850 3640 5290
2020-08-02 00:45 6.61 249 6020 (2019) 40 (2014) 1220 52 64 94 104 684 1620 1850 3640 5290
2020-08-01 23:45 6.63 254 5950 (2019) 42 (2014) 1330 54 72 98 116 1140 1780 2010 3540 5350
2020-08-01 22:45 6.65 259 5950 (2019) 42 (2014) 1330 54 72 98 116 1140 1780 2010 3540 5350
2020-08-01 21:45 6.68 266 5950 (2019) 42 (2014) 1330 54 72 98 116 1140 1780 2010 3540 5350
2020-08-01 20:45 6.71 274 5950 (2019) 42 (2014) 1330 54 72 98 116 1140 1780 2010 3540 5350
2020-08-01 19:45 6.74 282 5950 (2019) 42 (2014) 1330 54 72 98 116 1140 1780 2010 3540 5350
2020-08-01 18:45 6.78 292 5950 (2019) 42 (2014) 1330 54 72 98 116 1140 1780 2010 3540 5350
2020-08-01 17:45 6.82 303 5950 (2019) 42 (2014) 1330 54 72 98 116 1140 1780 2010 3540 5350
2020-08-01 16:45 6.87 317 5950 (2019) 42 (2014) 1330 54 72 98 116 1140 1780 2010 3540 5350
2020-08-01 15:45 6.91 326 5950 (2019) 42 (2014) 1330 54 72 98 116 1140 1780 2010 3540 5350
2020-08-01 14:45 6.96 338 5950 (2019) 42 (2014) 1330 54 72 98 116 1140 1780 2010 3540 5350
2020-08-01 13:45 7.01 350 5950 (2019) 42 (2014) 1330 54 72 98 116 1140 1780 2010 3540 5350
2020-08-01 12:45 7.07 365 5950 (2019) 42 (2014) 1330 54 72 98 116 1140 1780 2010 3540 5350
2020-08-01 11:45 7.12 377 5950 (2019) 42 (2014) 1330 54 72 98 116 1140 1780 2010 3540 5350
2020-08-01 10:45 7.16 388 5950 (2019) 42 (2014) 1330 54 72 98 116 1140 1780 2010 3540 5350
2020-08-01 09:45 7.19 395 5950 (2019) 42 (2014) 1330 54 72 98 116 1140 1780 2010 3540 5350
2020-08-01 08:45 7.21 400 5950 (2019) 42 (2014) 1330 54 72 98 116 1140 1780 2010 3540 5350
2020-08-01 07:45 7.21 400 5950 (2019) 42 (2014) 1330 54 72 98 116 1140 1780 2010 3540 5350
2020-08-01 06:45 7.20 398 5950 (2019) 42 (2014) 1330 54 72 98 116 1140 1780 2010 3540 5350
2020-08-01 05:45 7.19 395 5950 (2019) 42 (2014) 1330 54 72 98 116 1140 1780 2010 3540 5350
2020-08-01 04:45 7.25 411 5950 (2019) 42 (2014) 1330 54 72 98 116 1140 1780 2010 3540 5350
2020-08-01 03:45 7.39 447 5950 (2019) 42 (2014) 1330 54 72 98 116 1140 1780 2010 3540 5350
2020-08-01 02:45 7.60 505 5950 (2019) 42 (2014) 1330 54 72 98 116 1140 1780 2010 3540 5350
2020-08-01 01:45 7.89 589 5950 (2019) 42 (2014) 1330 54 72 98 116 1140 1780 2010 3540 5350
2020-08-01 00:45 8.29 713 5950 (2019) 42 (2014) 1330 54 72 98 116 1140 1780 2010 3540 5350
2020-07-31 23:45 8.81 888 6170 (2015) 39 (2014) 1230 55 67 77 90 669 1400 1910 3980 5880
2020-07-31 22:45 9.43 1120 6170 (2015) 39 (2014) 1230 55 67 77 90 669 1400 1910 3980 5880
2020-07-31 21:45 10.13 1410 6170 (2015) 39 (2014) 1230 55 67 77 90 669 1400 1910 3980 5880
2020-07-31 20:45 10.92 1760 6170 (2015) 39 (2014) 1230 55 67 77 90 669 1400 1910 3980 5880
2020-07-31 19:45 11.77 2210 6170 (2015) 39 (2014) 1230 55 67 77 90 669 1400 1910 3980 5880
2020-07-31 18:45 12.41 2570 6170 (2015) 39 (2014) 1230 55 67 77 90 669 1400 1910 3980 5880
2020-07-31 17:45 11.51 2070 6170 (2015) 39 (2014) 1230 55 67 77 90 669 1400 1910 3980 5880
2020-07-31 16:45 7.07 365 6170 (2015) 39 (2014) 1230 55 67 77 90 669 1400 1910 3980 5880
2020-07-31 15:45 6.52 228 6170 (2015) 39 (2014) 1230 55 67 77 90 669 1400 1910 3980 5880
2020-07-31 14:45 6.53 230 6170 (2015) 39 (2014) 1230 55 67 77 90 669 1400 1910 3980 5880
2020-07-31 13:45 6.53 230 6170 (2015) 39 (2014) 1230 55 67 77 90 669 1400 1910 3980 5880
2020-07-31 12:45 6.54 233 6170 (2015) 39 (2014) 1230 55 67 77 90 669 1400 1910 3980 5880
2020-07-31 11:45 6.57 240 6170 (2015) 39 (2014) 1230 55 67 77 90 669 1400 1910 3980 5880
2020-07-31 10:45 6.59 244 6170 (2015) 39 (2014) 1230 55 67 77 90 669 1400 1910 3980 5880
2020-07-31 09:45 6.65 259 6170 (2015) 39 (2014) 1230 55 67 77 90 669 1400 1910 3980 5880
2020-07-31 08:45 6.73 279 6170 (2015) 39 (2014) 1230 55 67 77 90 669 1400 1910 3980 5880
2020-07-31 07:45 6.84 308 6170 (2015) 39 (2014) 1230 55 67 77 90 669 1400 1910 3980 5880
2020-07-31 06:45 6.99 346 6170 (2015) 39 (2014) 1230 55 67 77 90 669 1400 1910 3980 5880
2020-07-31 05:45 7.20 398 6170 (2015) 39 (2014) 1230 55 67 77 90 669 1400 1910 3980 5880
2020-07-31 04:45 7.48 472 6170 (2015) 39 (2014) 1230 55 67 77 90 669 1400 1910 3980 5880
2020-07-31 03:45 7.84 574 6170 (2015) 39 (2014) 1230 55 67 77 90 669 1400 1910 3980 5880
2020-07-31 02:45 8.30 716 6170 (2015) 39 (2014) 1230 55 67 77 90 669 1400 1910 3980 5880
2020-07-31 01:45 8.87 910 6170 (2015) 39 (2014) 1230 55 67 77 90 669 1400 1910 3980 5880
2020-07-31 00:45 9.53 1160 6170 (2015) 39 (2014) 1230 55 67 77 90 669 1400 1910 3980 5880
2020-07-30 23:45 10.31 1480 6120 (2015) 38 (2014) 1320 55 67 79 90 590 1920 2280 4300 5670
2020-07-30 22:45 11.23 1920 6120 (2015) 38 (2014) 1320 55 67 79 90 590 1920 2280 4300 5670
2020-07-30 21:45 12.27 2490 6120 (2015) 38 (2014) 1320 55 67 79 90 590 1920 2280 4300 5670
2020-07-30 20:45 13.40 3180 6120 (2015) 38 (2014) 1320 55 67 79 90 590 1920 2280 4300 5670
2020-07-30 19:45 14.55 3970 6120 (2015) 38 (2014) 1320 55 67 79 90 590 1920 2280 4300 5670
2020-07-30 18:45 15.32 4530 6120 (2015) 38 (2014) 1320 55 67 79 90 590 1920 2280 4300 5670
2020-07-30 17:45 14.34 3820 6120 (2015) 38 (2014) 1320 55 67 79 90 590 1920 2280 4300 5670
2020-07-30 16:45 11.80 2220 6120 (2015) 38 (2014) 1320 55 67 79 90 590 1920 2280 4300 5670
2020-07-30 15:45 7.45 463 6120 (2015) 38 (2014) 1320 55 67 79 90 590 1920 2280 4300 5670
2020-07-30 14:45 6.48 219 6120 (2015) 38 (2014) 1320 55 67 79 90 590 1920 2280 4300 5670
2020-07-30 13:45 6.50 223 6120 (2015) 38 (2014) 1320 55 67 79 90 590 1920 2280 4300 5670
2020-07-30 12:45 6.53 230 6120 (2015) 38 (2014) 1320 55 67 79 90 590 1920 2280 4300 5670
2020-07-30 11:45 6.56 237 6120 (2015) 38 (2014) 1320 55 67 79 90 590 1920 2280 4300 5670
2020-07-30 10:45 6.61 249 6120 (2015) 38 (2014) 1320 55 67 79 90 590 1920 2280 4300 5670
2020-07-30 09:45 6.66 261 6120 (2015) 38 (2014) 1320 55 67 79 90 590 1920 2280 4300 5670
2020-07-30 08:45 6.75 284 6120 (2015) 38 (2014) 1320 55 67 79 90 590 1920 2280 4300 5670
2020-07-30 07:45 6.86 314 6120 (2015) 38 (2014) 1320 55 67 79 90 590 1920 2280 4300 5670
2020-07-30 06:45 7.02 353 6120 (2015) 38 (2014) 1320 55 67 79 90 590 1920 2280 4300 5670
2020-07-30 05:45 7.24 408 6120 (2015) 38 (2014) 1320 55 67 79 90 590 1920 2280 4300 5670
2020-07-30 04:45 7.52 483 6120 (2015) 38 (2014) 1320 55 67 79 90 590 1920 2280 4300 5670
2020-07-30 03:45 7.89 589 6120 (2015) 38 (2014) 1320 55 67 79 90 590 1920 2280 4300 5670
2020-07-30 02:45 8.35 732 6120 (2015) 38 (2014) 1320 55 67 79 90 590 1920 2280 4300 5670
2020-07-30 01:45 8.91 924 6120 (2015) 38 (2014) 1320 55 67 79 90 590 1920 2280 4300 5670
2020-07-30 00:45 9.57 1170 6120 (2015) 38 (2014) 1320 55 67 79 90 590 1920 2280 4300 5670
2020-07-29 23:45 10.34 1500 6150 (2019) 39 (2014) 1310 64 74 115 189 680 1740 2070 3640 5790
2020-07-29 22:45 11.26 1930 6150 (2019) 39 (2014) 1310 64 74 115 189 680 1740 2070 3640 5790
2020-07-29 21:45 12.30 2510 6150 (2019) 39 (2014) 1310 64 74 115 189 680 1740 2070 3640 5790
2020-07-29 20:45 13.43 3200 6150 (2019) 39 (2014) 1310 64 74 115 189 680 1740 2070 3640 5790
2020-07-29 19:45 14.59 4000 6150 (2019) 39 (2014) 1310 64 74 115 189 680 1740 2070 3640 5790
2020-07-29 18:45 15.34 4550 6150 (2019) 39 (2014) 1310 64 74 115 189 680 1740 2070 3640 5790
2020-07-29 17:45 14.34 3820 6150 (2019) 39 (2014) 1310 64 74 115 189 680 1740 2070 3640 5790
2020-07-29 16:45 11.75 2200 6150 (2019) 39 (2014) 1310 64 74 115 189 680 1740 2070 3640 5790
2020-07-29 15:45 7.49 474 6150 (2019) 39 (2014) 1310 64 74 115 189 680 1740 2070 3640 5790
2020-07-29 14:45 6.51 226 6150 (2019) 39 (2014) 1310 64 74 115 189 680 1740 2070 3640 5790
2020-07-29 13:45 6.52 228 6150 (2019) 39 (2014) 1310 64 74 115 189 680 1740 2070 3640 5790
2020-07-29 12:45 6.53 230 6150 (2019) 39 (2014) 1310 64 74 115 189 680 1740 2070 3640 5790
2020-07-29 11:45 6.57 240 6150 (2019) 39 (2014) 1310 64 74 115 189 680 1740 2070 3640 5790
2020-07-29 10:45 6.61 249 6150 (2019) 39 (2014) 1310 64 74 115 189 680 1740 2070 3640 5790
2020-07-29 09:45 6.67 264 6150 (2019) 39 (2014) 1310 64 74 115 189 680 1740 2070 3640 5790
2020-07-29 08:45 6.75 284 6150 (2019) 39 (2014) 1310 64 74 115 189 680 1740 2070 3640 5790
2020-07-29 07:45 6.87 317 6150 (2019) 39 (2014) 1310 64 74 115 189 680 1740 2070 3640 5790
2020-07-29 06:45 7.03 355 6150 (2019) 39 (2014) 1310 64 74 115 189 680 1740 2070 3640 5790
2020-07-29 05:45 7.24 408 6150 (2019) 39 (2014) 1310 64 74 115 189 680 1740 2070 3640 5790
2020-07-29 04:45 7.52 483 6150 (2019) 39 (2014) 1310 64 74 115 189 680 1740 2070 3640 5790
2020-07-29 03:45 7.88 586 6150 (2019) 39 (2014) 1310 64 74 115 189 680 1740 2070 3640 5790
2020-07-29 02:45 8.34 729 6150 (2019) 39 (2014) 1310 64 74 115 189 680 1740 2070 3640 5790
2020-07-29 01:45 8.89 917 6150 (2019) 39 (2014) 1310 64 74 115 189 680 1740 2070 3640 5790
2020-07-29 00:45 9.55 1160 6150 (2019) 39 (2014) 1310 64 74 115 189 680 1740 2070 3640 5790
2020-07-28 23:45 10.32 1490 6110 (2019) 39 (2014) 1260 52 66 86 106 858 1620 1810 3200 5220
2020-07-28 22:45 11.22 1910 6110 (2019) 39 (2014) 1260 52 66 86 106 858 1620 1810 3200 5220
2020-07-28 21:45 12.26 2480 6110 (2019) 39 (2014) 1260 52 66 86 106 858 1620 1810 3200 5220
2020-07-28 20:45 13.38 3170 6110 (2019) 39 (2014) 1260 52 66 86 106 858 1620 1810 3200 5220
2020-07-28 19:45 14.51 3940 6110 (2019) 39 (2014) 1260 52 66 86 106 858 1620 1810 3200 5220
2020-07-28 18:45 15.27 4490 6110 (2019) 39 (2014) 1260 52 66 86 106 858 1620 1810 3200 5220
2020-07-28 17:45 14.25 3760 6110 (2019) 39 (2014) 1260 52 66 86 106 858 1620 1810 3200 5220
2020-07-28 16:45 11.37 1990 6110 (2019) 39 (2014) 1260 52 66 86 106 858 1620 1810 3200 5220
2020-07-28 15:45 7.19 395 6110 (2019) 39 (2014) 1260 52 66 86 106 858 1620 1810 3200 5220
2020-07-28 14:45 6.40 200 6110 (2019) 39 (2014) 1260 52 66 86 106 858 1620 1810 3200 5220
2020-07-28 13:45 6.43 207 6110 (2019) 39 (2014) 1260 52 66 86 106 858 1620 1810 3200 5220
2020-07-28 12:45 6.47 216 6110 (2019) 39 (2014) 1260 52 66 86 106 858 1620 1810 3200 5220
2020-07-28 11:45 6.52 228 6110 (2019) 39 (2014) 1260 52 66 86 106 858 1620 1810 3200 5220
2020-07-28 10:45 6.59 244 6110 (2019) 39 (2014) 1260 52 66 86 106 858 1620 1810 3200 5220
2020-07-28 09:45 6.69 269 6110 (2019) 39 (2014) 1260 52 66 86 106 858 1620 1810 3200 5220
2020-07-28 08:45 6.83 306 6110 (2019) 39 (2014) 1260 52 66 86 106 858 1620 1810 3200 5220
2020-07-28 07:45 7.02 353 6110 (2019) 39 (2014) 1260 52 66 86 106 858 1620 1810 3200 5220
2020-07-28 06:45 7.26 413 6110 (2019) 39 (2014) 1260 52 66 86 106 858 1620 1810 3200 5220
2020-07-28 05:45 7.59 502 6110 (2019) 39 (2014) 1260 52 66 86 106 858 1620 1810 3200 5220
2020-07-28 04:45 8.01 625 6110 (2019) 39 (2014) 1260 52 66 86 106 858 1620 1810 3200 5220
2020-07-28 03:45 8.53 792 6110 (2019) 39 (2014) 1260 52 66 86 106 858 1620 1810 3200 5220
2020-07-28 02:45 9.16 1010 6110 (2019) 39 (2014) 1260 52 66 86 106 858 1620 1810 3200 5220
2020-07-28 01:45 9.89 1300 6110 (2019) 39 (2014) 1260 52 66 86 106 858 1620 1810 3200 5220
2020-07-28 00:45 10.75 1680 6110 (2019) 39 (2014) 1260 52 66 86 106 858 1620 1810 3200 5220
2020-07-27 23:45 11.76 2200 6110 (2015) 40 (2014) 1340 55 60 77 87 981 2070 2240 3760 5780
2020-07-27 22:45 12.89 2860 6110 (2015) 40 (2014) 1340 55 60 77 87 981 2070 2240 3760 5780
2020-07-27 21:45 14.13 3670 6110 (2015) 40 (2014) 1340 55 60 77 87 981 2070 2240 3760 5780
2020-07-27 20:45 15.40 4590 6110 (2015) 40 (2014) 1340 55 60 77 87 981 2070 2240 3760 5780
2020-07-27 19:45 16.44 5410 6110 (2015) 40 (2014) 1340 55 60 77 87 981 2070 2240 3760 5780
2020-07-27 18:45 16.14 5170 6110 (2015) 40 (2014) 1340 55 60 77 87 981 2070 2240 3760 5780
2020-07-27 17:45 15.42 4610 6110 (2015) 40 (2014) 1340 55 60 77 87 981 2070 2240 3760 5780
2020-07-27 16:45 14.22 3730 6110 (2015) 40 (2014) 1340 55 60 77 87 981 2070 2240 3760 5780
2020-07-27 15:45 11.26 1930 6110 (2015) 40 (2014) 1340 55 60 77 87 981 2070 2240 3760 5780
2020-07-27 14:45 6.99 346 6110 (2015) 40 (2014) 1340 55 60 77 87 981 2070 2240 3760 5780
2020-07-27 13:45 6.36 191 6110 (2015) 40 (2014) 1340 55 60 77 87 981 2070 2240 3760 5780
2020-07-27 12:45 6.38 195 6110 (2015) 40 (2014) 1340 55 60 77 87 981 2070 2240 3760 5780
2020-07-27 11:45 6.41 202 6110 (2015) 40 (2014) 1340 55 60 77 87 981 2070 2240 3760 5780
2020-07-27 10:45 6.45 212 6110 (2015) 40 (2014) 1340 55 60 77 87 981 2070 2240 3760 5780
2020-07-27 09:45 6.50 223 6110 (2015) 40 (2014) 1340 55 60 77 87 981 2070 2240 3760 5780
2020-07-27 08:45 6.58 242 6110 (2015) 40 (2014) 1340 55 60 77 87 981 2070 2240 3760 5780
2020-07-27 07:45 6.70 271 6110 (2015) 40 (2014) 1340 55 60 77 87 981 2070 2240 3760 5780
2020-07-27 06:45 6.87 317 6110 (2015) 40 (2014) 1340 55 60 77 87 981 2070 2240 3760 5780
2020-07-27 05:45 7.09 370 6110 (2015) 40 (2014) 1340 55 60 77 87 981 2070 2240 3760 5780
2020-07-27 04:45 7.38 445 6110 (2015) 40 (2014) 1340 55 60 77 87 981 2070 2240 3760 5780
2020-07-27 03:45 7.75 548 6110 (2015) 40 (2014) 1340 55 60 77 87 981 2070 2240 3760 5780
2020-07-27 02:45 8.22 691 6110 (2015) 40 (2014) 1340 55 60 77 87 981 2070 2240 3760 5780
2020-07-27 01:45 8.78 878 6110 (2015) 40 (2014) 1340 55 60 77 87 981 2070 2240 3760 5780
2020-07-27 00:45 9.45 1120 6110 (2015) 40 (2014) 1340 55 60 77 87 981 2070 2240 3760 5780
2020-07-26 23:45 10.23 1450 6120 (2015) 41 (2014) 1430 55 67 107 142 1010 1930 2190 3720 5730
2020-07-26 22:45 11.14 1870 6120 (2015) 41 (2014) 1430 55 67 107 142 1010 1930 2190 3720 5730
2020-07-26 21:45 12.18 2440 6120 (2015) 41 (2014) 1430 55 67 107 142 1010 1930 2190 3720 5730
2020-07-26 20:45 13.33 3140 6120 (2015) 41 (2014) 1430 55 67 107 142 1010 1930 2190 3720 5730
2020-07-26 19:45 14.45 3900 6120 (2015) 41 (2014) 1430 55 67 107 142 1010 1930 2190 3720 5730
2020-07-26 18:45 15.24 4470 6120 (2015) 41 (2014) 1430 55 67 107 142 1010 1930 2190 3720 5730
2020-07-26 17:45 14.23 3740 6120 (2015) 41 (2014) 1430 55 67 107 142 1010 1930 2190 3720 5730
2020-07-26 16:45 11.39 2000 6120 (2015) 41 (2014) 1430 55 67 107 142 1010 1930 2190 3720 5730
2020-07-26 15:45 7.07 365 6120 (2015) 41 (2014) 1430 55 67 107 142 1010 1930 2190 3720 5730
2020-07-26 14:45 6.33 184 6120 (2015) 41 (2014) 1430 55 67 107 142 1010 1930 2190 3720 5730
2020-07-26 13:45 6.35 189 6120 (2015) 41 (2014) 1430 55 67 107 142 1010 1930 2190 3720 5730
2020-07-26 12:45 6.38 195 6120 (2015) 41 (2014) 1430 55 67 107 142 1010 1930 2190 3720 5730
2020-07-26 11:45 6.41 202 6120 (2015) 41 (2014) 1430 55 67 107 142 1010 1930 2190 3720 5730
2020-07-26 10:45 6.46 214 6120 (2015) 41 (2014) 1430 55 67 107 142 1010 1930 2190 3720 5730
2020-07-26 09:45 6.52 228 6120 (2015) 41 (2014) 1430 55 67 107 142 1010 1930 2190 3720 5730
2020-07-26 08:45 6.60 247 6120 (2015) 41 (2014) 1430 55 67 107 142 1010 1930 2190 3720 5730
2020-07-26 07:45 6.72 276 6120 (2015) 41 (2014) 1430 55 67 107 142 1010 1930 2190 3720 5730
2020-07-26 06:45 6.88 319 6120 (2015) 41 (2014) 1430 55 67 107 142 1010 1930 2190 3720 5730
2020-07-26 05:45 7.10 373 6120 (2015) 41 (2014) 1430 55 67 107 142 1010 1930 2190 3720 5730
2020-07-26 04:45 7.39 447 6120 (2015) 41 (2014) 1430 55 67 107 142 1010 1930 2190 3720 5730
2020-07-26 03:45 7.76 551 6120 (2015) 41 (2014) 1430 55 67 107 142 1010 1930 2190 3720 5730
2020-07-26 02:45 8.22 691 6120 (2015) 41 (2014) 1430 55 67 107 142 1010 1930 2190 3720 5730
2020-07-26 01:45 8.78 878 6120 (2015) 41 (2014) 1430 55 67 107 142 1010 1930 2190 3720 5730
2020-07-26 00:45 9.45 1120 6120 (2015) 41 (2014) 1430 55 67 107 142 1010 1930 2190 3720 5730
2020-07-25 23:45 10.23 1450 6090 (2015) 41 (2014) 1380 51 60 86 100 859 1950 2080 3790 5740
2020-07-25 22:45 11.14 1870 6090 (2015) 41 (2014) 1380 51 60 86 100 859 1950 2080 3790 5740
2020-07-25 21:45 12.18 2440 6090 (2015) 41 (2014) 1380 51 60 86 100 859 1950 2080 3790 5740
2020-07-25 20:45 13.31 3130 6090 (2015) 41 (2014) 1380 51 60 86 100 859 1950 2080 3790 5740
2020-07-25 19:45 14.45 3900 6090 (2015) 41 (2014) 1380 51 60 86 100 859 1950 2080 3790 5740
2020-07-25 18:45 15.22 4460 6090 (2015) 41 (2014) 1380 51 60 86 100 859 1950 2080 3790 5740
2020-07-25 17:45 14.21 3730 6090 (2015) 41 (2014) 1380 51 60 86 100 859 1950 2080 3790 5740
2020-07-25 16:45 11.35 1980 6090 (2015) 41 (2014) 1380 51 60 86 100 859 1950 2080 3790 5740
2020-07-25 15:45 7.15 385 6090 (2015) 41 (2014) 1380 51 60 86 100 859 1950 2080 3790 5740
2020-07-25 14:45 6.36 191 6090 (2015) 41 (2014) 1380 51 60 86 100 859 1950 2080 3790 5740
2020-07-25 13:45 6.38 195 6090 (2015) 41 (2014) 1380 51 60 86 100 859 1950 2080 3790 5740
2020-07-25 12:45 6.41 202 6090 (2015) 41 (2014) 1380 51 60 86 100 859 1950 2080 3790 5740
2020-07-25 11:45 6.44 209 6090 (2015) 41 (2014) 1380 51 60 86 100 859 1950 2080 3790 5740
2020-07-25 10:45 6.49 221 6090 (2015) 41 (2014) 1380 51 60 86 100 859 1950 2080 3790 5740
2020-07-25 09:45 6.55 235 6090 (2015) 41 (2014) 1380 51 60 86 100 859 1950 2080 3790 5740
2020-07-25 08:45 6.64 256 6090 (2015) 41 (2014) 1380 51 60 86 100 859 1950 2080 3790 5740
2020-07-25 07:45 6.76 287 6090 (2015) 41 (2014) 1380 51 60 86 100 859 1950 2080 3790 5740
2020-07-25 06:45 6.94 334 6090 (2015) 41 (2014) 1380 51 60 86 100 859 1950 2080 3790 5740
2020-07-25 05:45 7.18 393 6090 (2015) 41 (2014) 1380 51 60 86 100 859 1950 2080 3790 5740
2020-07-25 04:45 7.49 474 6090 (2015) 41 (2014) 1380 51 60 86 100 859 1950 2080 3790 5740
2020-07-25 03:45 7.88 586 6090 (2015) 41 (2014) 1380 51 60 86 100 859 1950 2080 3790 5740
2020-07-25 02:45 8.37 739 6090 (2015) 41 (2014) 1380 51 60 86 100 859 1950 2080 3790 5740
2020-07-25 01:45 8.97 945 6090 (2015) 41 (2014) 1380 51 60 86 100 859 1950 2080 3790 5740
2020-07-25 00:45 9.67 1210 6090 (2015) 41 (2014) 1380 51 60 86 100 859 1950 2080 3790 5740
2020-07-24 23:45 10.49 1560 6040 (2015) 41 (2014) 1350 57 69 115 211 920 1830 2210 3790 5750
2020-07-24 22:45 11.46 2040 6040 (2015) 41 (2014) 1350 57 69 115 211 920 1830 2210 3790 5750
2020-07-24 21:45 12.56 2660 6040 (2015) 41 (2014) 1350 57 69 115 211 920 1830 2210 3790 5750
2020-07-24 20:45 13.75 3410 6040 (2015) 41 (2014) 1350 57 69 115 211 920 1830 2210 3790 5750
2020-07-24 19:45 14.97 4270 6040 (2015) 41 (2014) 1350 57 69 115 211 920 1830 2210 3790 5750
2020-07-24 18:45 15.92 4990 6040 (2015) 41 (2014) 1350 57 69 115 211 920 1830 2210 3790 5750
2020-07-24 17:45 15.35 4550 6040 (2015) 41 (2014) 1350 57 69 115 211 920 1830 2210 3790 5750
2020-07-24 16:45 14.21 3730 6040 (2015) 41 (2014) 1350 57 69 115 211 920 1830 2210 3790 5750
2020-07-24 15:45 11.41 2010 6040 (2015) 41 (2014) 1350 57 69 115 211 920 1830 2210 3790 5750
2020-07-24 14:45 7.16 388 6040 (2015) 41 (2014) 1350 57 69 115 211 920 1830 2210 3790 5750
2020-07-24 13:45 6.38 195 6040 (2015) 41 (2014) 1350 57 69 115 211 920 1830 2210 3790 5750
2020-07-24 12:45 6.40 200 6040 (2015) 41 (2014) 1350 57 69 115 211 920 1830 2210 3790 5750
2020-07-24 11:45 6.43 207 6040 (2015) 41 (2014) 1350 57 69 115 211 920 1830 2210 3790 5750
2020-07-24 10:45 6.47 216 6040 (2015) 41 (2014) 1350 57 69 115 211 920 1830 2210 3790 5750
2020-07-24 09:45 6.53 230 6040 (2015) 41 (2014) 1350 57 69 115 211 920 1830 2210 3790 5750
2020-07-24 08:45 6.61 249 6040 (2015) 41 (2014) 1350 57 69 115 211 920 1830 2210 3790 5750
2020-07-24 07:45 6.73 279 6040 (2015) 41 (2014) 1350 57 69 115 211 920 1830 2210 3790 5750
2020-07-24 06:45 6.89 322 6040 (2015) 41 (2014) 1350 57 69 115 211 920 1830 2210 3790 5750
2020-07-24 05:45 7.11 375 6040 (2015) 41 (2014) 1350 57 69 115 211 920 1830 2210 3790 5750
2020-07-24 04:45 7.39 447 6040 (2015) 41 (2014) 1350 57 69 115 211 920 1830 2210 3790 5750
2020-07-24 03:45 7.76 551 6040 (2015) 41 (2014) 1350 57 69 115 211 920 1830 2210 3790 5750
2020-07-24 02:45 8.22 691 6040 (2015) 41 (2014) 1350 57 69 115 211 920 1830 2210 3790 5750
2020-07-24 01:45 8.79 881 6040 (2015) 41 (2014) 1350 57 69 115 211 920 1830 2210 3790 5750
2020-07-24 00:45 9.46 1130 6040 (2015) 41 (2014) 1350 57 69 115 211 920 1830 2210 3790 5750
2020-07-23 23:45 10.23 1450 6050 (2019) 41 (2014) 1570 56 66 115 335 1270 2080 2640 4690 5720
2020-07-23 22:45 11.15 1880 6050 (2019) 41 (2014) 1570 56 66 115 335 1270 2080 2640 4690 5720
2020-07-23 21:45 12.19 2440 6050 (2019) 41 (2014) 1570 56 66 115 335 1270 2080 2640 4690 5720
2020-07-23 20:45 13.32 3130 6050 (2019) 41 (2014) 1570 56 66 115 335 1270 2080 2640 4690 5720
2020-07-23 19:45 14.46 3900 6050 (2019) 41 (2014) 1570 56 66 115 335 1270 2080 2640 4690 5720
2020-07-23 18:45 15.22 4460 6050 (2019) 41 (2014) 1570 56 66 115 335 1270 2080 2640 4690 5720
2020-07-23 17:45 14.22 3730 6050 (2019) 41 (2014) 1570 56 66 115 335 1270 2080 2640 4690 5720
2020-07-23 16:45 11.42 2020 6050 (2019) 41 (2014) 1570 56 66 115 335 1270 2080 2640 4690 5720
2020-07-23 15:45 7.20 398 6050 (2019) 41 (2014) 1570 56 66 115 335 1270 2080 2640 4690 5720
2020-07-23 14:45 6.39 198 6050 (2019) 41 (2014) 1570 56 66 115 335 1270 2080 2640 4690 5720
2020-07-23 13:45 6.40 200 6050 (2019) 41 (2014) 1570 56 66 115 335 1270 2080 2640 4690 5720
2020-07-23 12:45 6.43 207 6050 (2019) 41 (2014) 1570 56 66 115 335 1270 2080 2640 4690 5720
2020-07-23 11:45 6.46 214 6050 (2019) 41 (2014) 1570 56 66 115 335 1270 2080 2640 4690 5720
2020-07-23 10:45 6.50 223 6050 (2019) 41 (2014) 1570 56 66 115 335 1270 2080 2640 4690 5720
2020-07-23 09:45 6.55 235 6050 (2019) 41 (2014) 1570 56 66 115 335 1270 2080 2640 4690 5720
2020-07-23 08:45 6.63 254 6050 (2019) 41 (2014) 1570 56 66 115 335 1270 2080 2640 4690 5720
2020-07-23 07:45 6.75 284 6050 (2019) 41 (2014) 1570 56 66 115 335 1270 2080 2640 4690 5720
2020-07-23 06:45 6.91 326 6050 (2019) 41 (2014) 1570 56 66 115 335 1270 2080 2640 4690 5720
2020-07-23 05:45 7.13 380 6050 (2019) 41 (2014) 1570 56 66 115 335 1270 2080 2640 4690 5720
2020-07-23 04:45 7.41 453 6050 (2019) 41 (2014) 1570 56 66 115 335 1270 2080 2640 4690 5720
2020-07-23 03:45 7.78 556 6050 (2019) 41 (2014) 1570 56 66 115 335 1270 2080 2640 4690 5720
2020-07-23 02:45 8.24 697 6050 (2019) 41 (2014) 1570 56 66 115 335 1270 2080 2640 4690 5720
2020-07-23 01:45 8.80 885 6050 (2019) 41 (2014) 1570 56 66 115 335 1270 2080 2640 4690 5720
2020-07-23 00:45 9.47 1130 6050 (2019) 41 (2014) 1570 56 66 115 335 1270 2080 2640 4690 5720
2020-07-22 23:45 10.24 1450 6020 (2019) 41 (2014) 1440 64 79 143 248 1050 2050 2210 3910 5680
2020-07-22 22:45 11.15 1880 6020 (2019) 41 (2014) 1440 64 79 143 248 1050 2050 2210 3910 5680
2020-07-22 21:45 12.20 2450 6020 (2019) 41 (2014) 1440 64 79 143 248 1050 2050 2210 3910 5680
2020-07-22 20:45 13.32 3130 6020 (2019) 41 (2014) 1440 64 79 143 248 1050 2050 2210 3910 5680
2020-07-22 19:45 14.46 3900 6020 (2019) 41 (2014) 1440 64 79 143 248 1050 2050 2210 3910 5680
2020-07-22 18:45 15.23 4460 6020 (2019) 41 (2014) 1440 64 79 143 248 1050 2050 2210 3910 5680
2020-07-22 17:45 14.21 3730 6020 (2019) 41 (2014) 1440 64 79 143 248 1050 2050 2210 3910 5680
2020-07-22 16:45 11.40 2010 6020 (2019) 41 (2014) 1440 64 79 143 248 1050 2050 2210 3910 5680
2020-07-22 15:45 7.20 398 6020 (2019) 41 (2014) 1440 64 79 143 248 1050 2050 2210 3910 5680
2020-07-22 14:45 6.39 198 6020 (2019) 41 (2014) 1440 64 79 143 248 1050 2050 2210 3910 5680
2020-07-22 13:45 6.40 200 6020 (2019) 41 (2014) 1440 64 79 143 248 1050 2050 2210 3910 5680
2020-07-22 12:45 6.43 207 6020 (2019) 41 (2014) 1440 64 79 143 248 1050 2050 2210 3910 5680
2020-07-22 11:45 6.46 214 6020 (2019) 41 (2014) 1440 64 79 143 248 1050 2050 2210 3910 5680
2020-07-22 10:45 6.51 226 6020 (2019) 41 (2014) 1440 64 79 143 248 1050 2050 2210 3910 5680
2020-07-22 09:45 6.57 240 6020 (2019) 41 (2014) 1440 64 79 143 248 1050 2050 2210 3910 5680
2020-07-22 08:45 6.65 259 6020 (2019) 41 (2014) 1440 64 79 143 248 1050 2050 2210 3910 5680
2020-07-22 07:45 6.77 290 6020 (2019) 41 (2014) 1440 64 79 143 248 1050 2050 2210 3910 5680
2020-07-22 06:45 6.93 331 6020 (2019) 41 (2014) 1440 64 79 143 248 1050 2050 2210 3910 5680
2020-07-22 05:45 7.14 382 6020 (2019) 41 (2014) 1440 64 79 143 248 1050 2050 2210 3910 5680
2020-07-22 04:45 7.43 458 6020 (2019) 41 (2014) 1440 64 79 143 248 1050 2050 2210 3910 5680
2020-07-22 03:45 7.81 565 6020 (2019) 41 (2014) 1440 64 79 143 248 1050 2050 2210 3910 5680
2020-07-22 02:45 8.27 707 6020 (2019) 41 (2014) 1440 64 79 143 248 1050 2050 2210 3910 5680
2020-07-22 01:45 8.84 899 6020 (2019) 41 (2014) 1440 64 79 143 248 1050 2050 2210 3910 5680
2020-07-22 00:45 9.51 1150 6020 (2019) 41 (2014) 1440 64 79 143 248 1050 2050 2210 3910 5680
2020-07-21 23:45 10.29 1470 5940 (2019) 41 (2014) 1350 58 69 83 95 1080 2070 2170 3140 4760
2020-07-21 22:45 11.20 1900 5940 (2019) 41 (2014) 1350 58 69 83 95 1080 2070 2170 3140 4760
2020-07-21 21:45 12.25 2480 5940 (2019) 41 (2014) 1350 58 69 83 95 1080 2070 2170 3140 4760
2020-07-21 20:45 13.37 3170 5940 (2019) 41 (2014) 1350 58 69 83 95 1080 2070 2170 3140 4760
2020-07-21 19:45 14.52 3950 5940 (2019) 41 (2014) 1350 58 69 83 95 1080 2070 2170 3140 4760
2020-07-21 18:45 15.29 4510 5940 (2019) 41 (2014) 1350 58 69 83 95 1080 2070 2170 3140 4760
2020-07-21 17:45 14.28 3780 5940 (2019) 41 (2014) 1350 58 69 83 95 1080 2070 2170 3140 4760
2020-07-21 16:45 11.77 2210 5940 (2019) 41 (2014) 1350 58 69 83 95 1080 2070 2170 3140 4760
2020-07-21 15:45 7.36 439 5940 (2019) 41 (2014) 1350 58 69 83 95 1080 2070 2170 3140 4760
2020-07-21 14:45 6.43 207 5940 (2019) 41 (2014) 1350 58 69 83 95 1080 2070 2170 3140 4760
2020-07-21 13:45 6.46 214 5940 (2019) 41 (2014) 1350 58 69 83 95 1080 2070 2170 3140 4760
2020-07-21 12:45 6.49 221 5940 (2019) 41 (2014) 1350 58 69 83 95 1080 2070 2170 3140 4760
2020-07-21 11:45 6.53 230 5940 (2019) 41 (2014) 1350 58 69 83 95 1080 2070 2170 3140 4760
2020-07-21 10:45 6.59 244 5940 (2019) 41 (2014) 1350 58 69 83 95 1080 2070 2170 3140 4760
2020-07-21 09:45 6.67 264 5940 (2019) 41 (2014) 1350 58 69 83 95 1080 2070 2170 3140 4760
2020-07-21 08:45 6.79 295 5940 (2019) 41 (2014) 1350 58 69 83 95 1080 2070 2170 3140 4760
2020-07-21 07:45 6.96 338 5940 (2019) 41 (2014) 1350 58 69 83 95 1080 2070 2170 3140 4760
2020-07-21 06:45 7.18 393 5940 (2019) 41 (2014) 1350 58 69 83 95 1080 2070 2170 3140 4760
2020-07-21 05:45 7.48 472 5940 (2019) 41 (2014) 1350 58 69 83 95 1080 2070 2170 3140 4760
2020-07-21 04:45 7.86 580 5940 (2019) 41 (2014) 1350 58 69 83 95 1080 2070 2170 3140 4760
2020-07-21 03:45 8.33 726 5940 (2019) 41 (2014) 1350 58 69 83 95 1080 2070 2170 3140 4760
2020-07-21 02:45 8.91 924 5940 (2019) 41 (2014) 1350 58 69 83 95 1080 2070 2170 3140 4760
2020-07-21 01:45 9.59 1180 5940 (2019) 41 (2014) 1350 58 69 83 95 1080 2070 2170 3140 4760
2020-07-21 00:45 10.40 1520 5940 (2019) 41 (2014) 1350 58 69 83 95 1080 2070 2170 3140 4760
2020-07-20 23:45 11.33 1970 5900 (2019) 42 (2014) 1400 58 67 86 157 960 2090 2320 3620 5040
2020-07-20 22:45 12.40 2570 5900 (2019) 42 (2014) 1400 58 67 86 157 960 2090 2320 3620 5040
2020-07-20 21:45 13.56 3290 5900 (2019) 42 (2014) 1400 58 67 86 157 960 2090 2320 3620 5040
2020-07-20 20:45 14.75 4110 5900 (2019) 42 (2014) 1400 58 67 86 157 960 2090 2320 3620 5040
2020-07-20 19:45 15.62 4760 5900 (2019) 42 (2014) 1400 58 67 86 157 960 2090 2320 3620 5040
2020-07-20 18:45 15.01 4300 5900 (2019) 42 (2014) 1400 58 67 86 157 960 2090 2320 3620 5040
2020-07-20 17:45 13.99 3580 5900 (2019) 42 (2014) 1400 58 67 86 157 960 2090 2320 3620 5040
2020-07-20 16:45 12.88 2860 5900 (2019) 42 (2014) 1400 58 67 86 157 960 2090 2320 3620 5040
2020-07-20 15:45 10.86 1730 5900 (2019) 42 (2014) 1400 58 67 86 157 960 2090 2320 3620 5040
2020-07-20 14:45 6.86 314 5900 (2019) 42 (2014) 1400 58 67 86 157 960 2090 2320 3620 5040
2020-07-20 13:45 6.44 209 5900 (2019) 42 (2014) 1400 58 67 86 157 960 2090 2320 3620 5040
2020-07-20 12:45 6.48 219 5900 (2019) 42 (2014) 1400 58 67 86 157 960 2090 2320 3620 5040
2020-07-20 11:45 6.51 226 5900 (2019) 42 (2014) 1400 58 67 86 157 960 2090 2320 3620 5040
2020-07-20 10:45 6.54 233 5900 (2019) 42 (2014) 1400 58 67 86 157 960 2090 2320 3620 5040
2020-07-20 09:45 6.60 247 5900 (2019) 42 (2014) 1400 58 67 86 157 960 2090 2320 3620 5040
2020-07-20 08:45 6.68 266 5900 (2019) 42 (2014) 1400 58 67 86 157 960 2090 2320 3620 5040
2020-07-20 07:45 6.79 295 5900 (2019) 42 (2014) 1400 58 67 86 157 960 2090 2320 3620 5040
2020-07-20 06:45 6.95 336 5900 (2019) 42 (2014) 1400 58 67 86 157 960 2090 2320 3620 5040
2020-07-20 05:45 7.16 388 5900 (2019) 42 (2014) 1400 58 67 86 157 960 2090 2320 3620 5040
2020-07-20 04:45 7.44 461 5900 (2019) 42 (2014) 1400 58 67 86 157 960 2090 2320 3620 5040
2020-07-20 03:45 7.81 565 5900 (2019) 42 (2014) 1400 58 67 86 157 960 2090 2320 3620 5040
2020-07-20 02:45 8.26 703 5900 (2019) 42 (2014) 1400 58 67 86 157 960 2090 2320 3620 5040
2020-07-20 01:45 8.82 892 5900 (2019) 42 (2014) 1400 58 67 86 157 960 2090 2320 3620 5040
2020-07-20 00:45 9.48 1140 5900 (2019) 42 (2014) 1400 58 67 86 157 960 2090 2320 3620 5040
2020-07-19 23:45 10.25 1460 6080 (2015) 42 (2014) 1510 63 77 113 219 1290 2100 2170 3590 5640
2020-07-19 22:45 11.15 1880 6080 (2015) 42 (2014) 1510 63 77 113 219 1290 2100 2170 3590 5640
2020-07-19 21:45 12.19 2440 6080 (2015) 42 (2014) 1510 63 77 113 219 1290 2100 2170 3590 5640
2020-07-19 20:45 13.31 3130 6080 (2015) 42 (2014) 1510 63 77 113 219 1290 2100 2170 3590 5640
2020-07-19 19:45 14.45 3900 6080 (2015) 42 (2014) 1510 63 77 113 219 1290 2100 2170 3590 5640
2020-07-19 18:45 15.21 4450 6080 (2015) 42 (2014) 1510 63 77 113 219 1290 2100 2170 3590 5640
2020-07-19 17:45 14.21 3730 6080 (2015) 42 (2014) 1510 63 77 113 219 1290 2100 2170 3590 5640
2020-07-19 16:45 11.73 2190 6080 (2015) 42 (2014) 1510 63 77 113 219 1290 2100 2170 3590 5640
2020-07-19 15:45 7.35 437 6080 (2015) 42 (2014) 1510 63 77 113 219 1290 2100 2170 3590 5640
2020-07-19 14:45 6.44 209 6080 (2015) 42 (2014) 1510 63 77 113 219 1290 2100 2170 3590 5640
2020-07-19 13:45 6.44 209 6080 (2015) 42 (2014) 1510 63 77 113 219 1290 2100 2170 3590 5640
2020-07-19 12:45 6.45 212 6080 (2015) 42 (2014) 1510 63 77 113 219 1290 2100 2170 3590 5640
2020-07-19 11:45 6.46 214 6080 (2015) 42 (2014) 1510 63 77 113 219 1290 2100 2170 3590 5640
2020-07-19 10:45 6.47 216 6080 (2015) 42 (2014) 1510 63 77 113 219 1290 2100 2170 3590 5640
2020-07-19 09:45 6.47 216 6080 (2015) 42 (2014) 1510 63 77 113 219 1290 2100 2170 3590 5640
2020-07-19 08:45 6.47 216 6080 (2015) 42 (2014) 1510 63 77 113 219 1290 2100 2170 3590 5640
2020-07-19 07:45 6.47 216 6080 (2015) 42 (2014) 1510 63 77 113 219 1290 2100 2170 3590 5640
2020-07-19 06:45 6.47 216 6080 (2015) 42 (2014) 1510 63 77 113 219 1290 2100 2170 3590 5640
2020-07-19 05:45 6.48 219 6080 (2015) 42 (2014) 1510 63 77 113 219 1290 2100 2170 3590 5640
2020-07-19 04:45 6.48 219 6080 (2015) 42 (2014) 1510 63 77 113 219 1290 2100 2170 3590 5640
2020-07-19 03:45 6.47 216 6080 (2015) 42 (2014) 1510 63 77 113 219 1290 2100 2170 3590 5640
2020-07-19 02:45 6.46 214 6080 (2015) 42 (2014) 1510 63 77 113 219 1290 2100 2170 3590 5640
2020-07-19 01:45 6.45 212 6080 (2015) 42 (2014) 1510 63 77 113 219 1290 2100 2170 3590 5640
2020-07-19 00:45 6.43 207 6080 (2015) 42 (2014) 1510 63 77 113 219 1290 2100 2170 3590 5640
2020-07-18 23:45 6.41 202 5870 (2019) 43 (2014) 1450 57 75 92 217 1140 1960 2220 3400 5370
2020-07-18 22:45 6.38 195 5870 (2019) 43 (2014) 1450 57 75 92 217 1140 1960 2220 3400 5370
2020-07-18 21:45 6.36 191 5870 (2019) 43 (2014) 1450 57 75 92 217 1140 1960 2220 3400 5370
2020-07-18 20:45 6.35 189 5870 (2019) 43 (2014) 1450 57 75 92 217 1140 1960 2220 3400 5370
2020-07-18 19:45 6.35 189 5870 (2019) 43 (2014) 1450 57 75 92 217 1140 1960 2220 3400 5370
2020-07-18 18:45 6.36 191 5870 (2019) 43 (2014) 1450 57 75 92 217 1140 1960 2220 3400 5370
2020-07-18 17:45 6.37 193 5870 (2019) 43 (2014) 1450 57 75 92 217 1140 1960 2220 3400 5370
2020-07-18 16:45 6.38 195 5870 (2019) 43 (2014) 1450 57 75 92 217 1140 1960 2220 3400 5370
2020-07-18 15:45 6.39 198 5870 (2019) 43 (2014) 1450 57 75 92 217 1140 1960 2220 3400 5370
2020-07-18 14:45 6.41 202 5870 (2019) 43 (2014) 1450 57 75 92 217 1140 1960 2220 3400 5370
2020-07-18 13:45 6.42 205 5870 (2019) 43 (2014) 1450 57 75 92 217 1140 1960 2220 3400 5370
2020-07-18 12:45 6.45 212 5870 (2019) 43 (2014) 1450 57 75 92 217 1140 1960 2220 3400 5370
2020-07-18 11:45 6.48 219 5870 (2019) 43 (2014) 1450 57 75 92 217 1140 1960 2220 3400 5370
2020-07-18 10:45 6.52 228 5870 (2019) 43 (2014) 1450 57 75 92 217 1140 1960 2220 3400 5370
2020-07-18 09:45 6.58 242 5870 (2019) 43 (2014) 1450 57 75 92 217 1140 1960 2220 3400 5370
2020-07-18 08:45 6.67 264 5870 (2019) 43 (2014) 1450 57 75 92 217 1140 1960 2220 3400 5370
2020-07-18 07:45 6.79 295 5870 (2019) 43 (2014) 1450 57 75 92 217 1140 1960 2220 3400 5370
2020-07-18 06:45 6.97 341 5870 (2019) 43 (2014) 1450 57 75 92 217 1140 1960 2220 3400 5370
2020-07-18 05:45 7.19 395 5870 (2019) 43 (2014) 1450 57 75 92 217 1140 1960 2220 3400 5370
2020-07-18 04:45 7.50 477 5870 (2019) 43 (2014) 1450 57 75 92 217 1140 1960 2220 3400 5370
2020-07-18 03:45 7.90 592 5870 (2019) 43 (2014) 1450 57 75 92 217 1140 1960 2220 3400 5370
2020-07-18 02:45 8.39 746 5870 (2019) 43 (2014) 1450 57 75 92 217 1140 1960 2220 3400 5370
2020-07-18 01:45 8.98 949 5870 (2019) 43 (2014) 1450 57 75 92 217 1140 1960 2220 3400 5370
2020-07-18 00:45 9.68 1220 5870 (2019) 43 (2014) 1450 57 75 92 217 1140 1960 2220 3400 5370
2020-07-17 23:45 10.50 1570 5860 (2019) 44 (2014) 1330 54 64 95 150 1020 1940 2210 3580 5140
2020-07-17 22:45 11.47 2040 5860 (2019) 44 (2014) 1330 54 64 95 150 1020 1940 2210 3580 5140
2020-07-17 21:45 12.57 2670 5860 (2019) 44 (2014) 1330 54 64 95 150 1020 1940 2210 3580 5140
2020-07-17 20:45 13.75 3410 5860 (2019) 44 (2014) 1330 54 64 95 150 1020 1940 2210 3580 5140
2020-07-17 19:45 14.97 4270 5860 (2019) 44 (2014) 1330 54 64 95 150 1020 1940 2210 3580 5140
2020-07-17 18:45 15.93 5000 5860 (2019) 44 (2014) 1330 54 64 95 150 1020 1940 2210 3580 5140
2020-07-17 17:45 15.38 4580 5860 (2019) 44 (2014) 1330 54 64 95 150 1020 1940 2210 3580 5140
2020-07-17 16:45 14.22 3730 5860 (2019) 44 (2014) 1330 54 64 95 150 1020 1940 2210 3580 5140
2020-07-17 15:45 11.96 2310 5860 (2019) 44 (2014) 1330 54 64 95 150 1020 1940 2210 3580 5140
2020-07-17 14:45 7.31 426 5860 (2019) 44 (2014) 1330 54 64 95 150 1020 1940 2210 3580 5140
2020-07-17 13:45 6.36 191 5860 (2019) 44 (2014) 1330 54 64 95 150 1020 1940 2210 3580 5140
2020-07-17 12:45 6.37 193 5860 (2019) 44 (2014) 1330 54 64 95 150 1020 1940 2210 3580 5140
2020-07-17 11:45 6.37 193 5860 (2019) 44 (2014) 1330 54 64 95 150 1020 1940 2210 3580 5140
2020-07-17 10:45 6.37 193 5860 (2019) 44 (2014) 1330 54 64 95 150 1020 1940 2210 3580 5140
2020-07-17 09:45 6.37 193 5860 (2019) 44 (2014) 1330 54 64 95 150 1020 1940 2210 3580 5140
2020-07-17 08:45 6.37 193 5860 (2019) 44 (2014) 1330 54 64 95 150 1020 1940 2210 3580 5140
2020-07-17 07:45 6.37 193 5860 (2019) 44 (2014) 1330 54 64 95 150 1020 1940 2210 3580 5140
2020-07-17 06:45 6.36 191 5860 (2019) 44 (2014) 1330 54 64 95 150 1020 1940 2210 3580 5140
2020-07-17 05:45 6.36 191 5860 (2019) 44 (2014) 1330 54 64 95 150 1020 1940 2210 3580 5140
2020-07-17 04:45 6.36 191 5860 (2019) 44 (2014) 1330 54 64 95 150 1020 1940 2210 3580 5140
2020-07-17 03:45 6.35 189 5860 (2019) 44 (2014) 1330 54 64 95 150 1020 1940 2210 3580 5140
2020-07-17 02:45 6.35 189 5860 (2019) 44 (2014) 1330 54 64 95 150 1020 1940 2210 3580 5140
2020-07-17 01:45 6.35 189 5860 (2019) 44 (2014) 1330 54 64 95 150 1020 1940 2210 3580 5140
2020-07-17 00:45 6.35 189 5860 (2019) 44 (2014) 1330 54 64 95 150 1020 1940 2210 3580 5140
2020-07-16 23:45 6.35 189 6470 (2015) 53 (1978) 1280 58 70 129 264 959 1600 1800 3370 5190
2020-07-16 22:45 6.35 189 6470 (2015) 53 (1978) 1280 58 70 129 264 959 1600 1800 3370 5190
2020-07-16 21:45 6.36 191 6470 (2015) 53 (1978) 1280 58 70 129 264 959 1600 1800 3370 5190
2020-07-16 20:45 6.36 191 6470 (2015) 53 (1978) 1280 58 70 129 264 959 1600 1800 3370 5190
2020-07-16 19:45 6.37 193 6470 (2015) 53 (1978) 1280 58 70 129 264 959 1600 1800 3370 5190
2020-07-16 18:45 6.38 195 6470 (2015) 53 (1978) 1280 58 70 129 264 959 1600 1800 3370 5190
2020-07-16 17:45 6.39 198 6470 (2015) 53 (1978) 1280 58 70 129 264 959 1600 1800 3370 5190
2020-07-16 16:45 6.40 200 6470 (2015) 53 (1978) 1280 58 70 129 264 959 1600 1800 3370 5190
2020-07-16 15:45 6.41 202 6470 (2015) 53 (1978) 1280 58 70 129 264 959 1600 1800 3370 5190
2020-07-16 14:45 6.43 207 6470 (2015) 53 (1978) 1280 58 70 129 264 959 1600 1800 3370 5190
2020-07-16 13:45 6.46 214 6470 (2015) 53 (1978) 1280 58 70 129 264 959 1600 1800 3370 5190
2020-07-16 12:45 6.49 221 6470 (2015) 53 (1978) 1280 58 70 129 264 959 1600 1800 3370 5190
2020-07-16 11:45 6.54 233 6470 (2015) 53 (1978) 1280 58 70 129 264 959 1600 1800 3370 5190
2020-07-16 10:45 6.60 247 6470 (2015) 53 (1978) 1280 58 70 129 264 959 1600 1800 3370 5190
2020-07-16 09:45 6.68 266 6470 (2015) 53 (1978) 1280 58 70 129 264 959 1600 1800 3370 5190
2020-07-16 08:45 6.80 298 6470 (2015) 53 (1978) 1280 58 70 129 264 959 1600 1800 3370 5190
2020-07-16 07:45 6.97 341 6470 (2015) 53 (1978) 1280 58 70 129 264 959 1600 1800 3370 5190
2020-07-16 06:45 7.19 395 6470 (2015) 53 (1978) 1280 58 70 129 264 959 1600 1800 3370 5190
2020-07-16 05:45 7.48 472 6470 (2015) 53 (1978) 1280 58 70 129 264 959 1600 1800 3370 5190
2020-07-16 04:45 7.86 580 6470 (2015) 53 (1978) 1280 58 70 129 264 959 1600 1800 3370 5190
2020-07-16 03:45 8.34 729 6470 (2015) 53 (1978) 1280 58 70 129 264 959 1600 1800 3370 5190
2020-07-16 02:45 8.94 935 6470 (2015) 53 (1978) 1280 58 70 129 264 959 1600 1800 3370 5190
2020-07-16 01:45 9.64 1200 6470 (2015) 53 (1978) 1280 58 70 129 264 959 1600 1800 3370 5190
2020-07-16 00:45 10.48 1560 6470 (2015) 53 (1978) 1280 58 70 129 264 959 1600 1800 3370 5190
2020-07-15 23:45 11.45 2030 5900 (2015) 55 (1978) 1380 57 72 144 198 1130 1770 1880 3580 4980
2020-07-15 22:45 12.54 2650 5900 (2015) 55 (1978) 1380 57 72 144 198 1130 1770 1880 3580 4980
2020-07-15 21:45 13.74 3410 5900 (2015) 55 (1978) 1380 57 72 144 198 1130 1770 1880 3580 4980
2020-07-15 20:45 14.97 4270 5900 (2015) 55 (1978) 1380 57 72 144 198 1130 1770 1880 3580 4980
2020-07-15 19:45 15.92 4990 5900 (2015) 55 (1978) 1380 57 72 144 198 1130 1770 1880 3580 4980
2020-07-15 18:45 15.36 4560 5900 (2015) 55 (1978) 1380 57 72 144 198 1130 1770 1880 3580 4980
2020-07-15 17:45 14.20 3720 5900 (2015) 55 (1978) 1380 57 72 144 198 1130 1770 1880 3580 4980
2020-07-15 16:45 11.61 2120 5900 (2015) 55 (1978) 1380 57 72 144 198 1130 1770 1880 3580 4980
2020-07-15 15:45 7.34 434 5900 (2015) 55 (1978) 1380 57 72 144 198 1130 1770 1880 3580 4980
2020-07-15 14:45 6.46 214 5900 (2015) 55 (1978) 1380 57 72 144 198 1130 1770 1880 3580 4980
2020-07-15 13:45 6.48 219 5900 (2015) 55 (1978) 1380 57 72 144 198 1130 1770 1880 3580 4980
2020-07-15 12:45 6.51 226 5900 (2015) 55 (1978) 1380 57 72 144 198 1130 1770 1880 3580 4980
2020-07-15 11:45 6.56 237 5900 (2015) 55 (1978) 1380 57 72 144 198 1130 1770 1880 3580 4980
2020-07-15 10:45 6.62 251 5900 (2015) 55 (1978) 1380 57 72 144 198 1130 1770 1880 3580 4980
2020-07-15 09:45 6.71 274 5900 (2015) 55 (1978) 1380 57 72 144 198 1130 1770 1880 3580 4980
2020-07-15 08:45 6.84 308 5900 (2015) 55 (1978) 1380 57 72 144 198 1130 1770 1880 3580 4980
2020-07-15 07:45 7.01 350 5900 (2015) 55 (1978) 1380 57 72 144 198 1130 1770 1880 3580 4980
2020-07-15 06:45 7.25 411 5900 (2015) 55 (1978) 1380 57 72 144 198 1130 1770 1880 3580 4980
2020-07-15 05:45 7.56 494 5900 (2015) 55 (1978) 1380 57 72 144 198 1130 1770 1880 3580 4980
2020-07-15 04:45 7.96 610 5900 (2015) 55 (1978) 1380 57 72 144 198 1130 1770 1880 3580 4980
2020-07-15 03:45 8.46 769 5900 (2015) 55 (1978) 1380 57 72 144 198 1130 1770 1880 3580 4980
2020-07-15 02:45 9.06 978 5900 (2015) 55 (1978) 1380 57 72 144 198 1130 1770 1880 3580 4980
2020-07-15 01:45 9.77 1250 5900 (2015) 55 (1978) 1380 57 72 144 198 1130 1770 1880 3580 4980
2020-07-15 00:45 10.60 1610 5900 (2015) 55 (1978) 1380 57 72 144 198 1130 1770 1880 3580 4980
2020-07-14 23:45 11.58 2100 5810 (2015) 56 (1991) 1340 62 72 130 212 1070 1800 2080 3460 5340
2020-07-14 22:45 12.69 2740 5810 (2015) 56 (1991) 1340 62 72 130 212 1070 1800 2080 3460 5340
2020-07-14 21:45 13.88 3500 5810 (2015) 56 (1991) 1340 62 72 130 212 1070 1800 2080 3460 5340
2020-07-14 20:45 15.09 4360 5810 (2015) 56 (1991) 1340 62 72 130 212 1070 1800 2080 3460 5340
2020-07-14 19:45 15.97 5030 5810 (2015) 56 (1991) 1340 62 72 130 212 1070 1800 2080 3460 5340
2020-07-14 18:45 15.38 4580 5810 (2015) 56 (1991) 1340 62 72 130 212 1070 1800 2080 3460 5340
2020-07-14 17:45 14.21 3730 5810 (2015) 56 (1991) 1340 62 72 130 212 1070 1800 2080 3460 5340
2020-07-14 16:45 11.66 2150 5810 (2015) 56 (1991) 1340 62 72 130 212 1070 1800 2080 3460 5340
2020-07-14 15:45 7.34 434 5810 (2015) 56 (1991) 1340 62 72 130 212 1070 1800 2080 3460 5340
2020-07-14 14:45 6.45 212 5810 (2015) 56 (1991) 1340 62 72 130 212 1070 1800 2080 3460 5340
2020-07-14 13:45 6.48 219 5810 (2015) 56 (1991) 1340 62 72 130 212 1070 1800 2080 3460 5340
2020-07-14 12:45 6.51 226 5810 (2015) 56 (1991) 1340 62 72 130 212 1070 1800 2080 3460 5340
2020-07-14 11:45 6.55 235 5810 (2015) 56 (1991) 1340 62 72 130 212 1070 1800 2080 3460 5340
2020-07-14 10:45 6.61 249 5810 (2015) 56 (1991) 1340 62 72 130 212 1070 1800 2080 3460 5340
2020-07-14 09:45 6.70 271 5810 (2015) 56 (1991) 1340 62 72 130 212 1070 1800 2080 3460 5340
2020-07-14 08:45 6.82 303 5810 (2015) 56 (1991) 1340 62 72 130 212 1070 1800 2080 3460 5340
2020-07-14 07:45 6.99 346 5810 (2015) 56 (1991) 1340 62 72 130 212 1070 1800 2080 3460 5340
2020-07-14 06:45 7.21 400 5810 (2015) 56 (1991) 1340 62 72 130 212 1070 1800 2080 3460 5340
2020-07-14 05:45 7.51 480 5810 (2015) 56 (1991) 1340 62 72 130 212 1070 1800 2080 3460 5340
2020-07-14 04:45 7.90 592 5810 (2015) 56 (1991) 1340 62 72 130 212 1070 1800 2080 3460 5340
2020-07-14 03:45 8.37 739 5810 (2015) 56 (1991) 1340 62 72 130 212 1070 1800 2080 3460 5340
2020-07-14 02:45 8.97 945 5810 (2015) 56 (1991) 1340 62 72 130 212 1070 1800 2080 3460 5340
2020-07-14 01:45 9.66 1210 5810 (2015) 56 (1991) 1340 62 72 130 212 1070 1800 2080 3460 5340
2020-07-14 00:45 10.48 1560 5810 (2015) 56 (1991) 1340 62 72 130 212 1070 1800 2080 3460 5340
2020-07-13 23:45 11.45 2030 6300 (2008) 58 (2006) 1490 61 73 120 308 917 1770 1920 4630 5620
2020-07-13 22:45 12.55 2660 6300 (2008) 58 (2006) 1490 61 73 120 308 917 1770 1920 4630 5620
2020-07-13 21:45 13.74 3410 6300 (2008) 58 (2006) 1490 61 73 120 308 917 1770 1920 4630 5620
2020-07-13 20:45 14.99 4290 6300 (2008) 58 (2006) 1490 61 73 120 308 917 1770 1920 4630 5620
2020-07-13 19:45 16.07 5110 6300 (2008) 58 (2006) 1490 61 73 120 308 917 1770 1920 4630 5620
2020-07-13 18:45 16.02 5070 6300 (2008) 58 (2006) 1490 61 73 120 308 917 1770 1920 4630 5620
2020-07-13 17:45 15.34 4550 6300 (2008) 58 (2006) 1490 61 73 120 308 917 1770 1920 4630 5620
2020-07-13 16:45 14.20 3720 6300 (2008) 58 (2006) 1490 61 73 120 308 917 1770 1920 4630 5620
2020-07-13 15:45 11.59 2110 6300 (2008) 58 (2006) 1490 61 73 120 308 917 1770 1920 4630 5620
2020-07-13 14:45 7.31 426 6300 (2008) 58 (2006) 1490 61 73 120 308 917 1770 1920 4630 5620
2020-07-13 13:45 6.44 209 6300 (2008) 58 (2006) 1490 61 73 120 308 917 1770 1920 4630 5620
2020-07-13 12:45 6.47 216 6300 (2008) 58 (2006) 1490 61 73 120 308 917 1770 1920 4630 5620
2020-07-13 11:45 6.49 221 6300 (2008) 58 (2006) 1490 61 73 120 308 917 1770 1920 4630 5620
2020-07-13 10:45 6.53 230 6300 (2008) 58 (2006) 1490 61 73 120 308 917 1770 1920 4630 5620
2020-07-13 09:45 6.57 240 6300 (2008) 58 (2006) 1490 61 73 120 308 917 1770 1920 4630 5620
2020-07-13 08:45 6.64 256 6300 (2008) 58 (2006) 1490 61 73 120 308 917 1770 1920 4630 5620
2020-07-13 07:45 6.73 279 6300 (2008) 58 (2006) 1490 61 73 120 308 917 1770 1920 4630 5620
2020-07-13 06:45 6.86 314 6300 (2008) 58 (2006) 1490 61 73 120 308 917 1770 1920 4630 5620
2020-07-13 05:45 7.04 358 6300 (2008) 58 (2006) 1490 61 73 120 308 917 1770 1920 4630 5620
2020-07-13 04:45 7.28 418 6300 (2008) 58 (2006) 1490 61 73 120 308 917 1770 1920 4630 5620
2020-07-13 03:45 7.60 505 6300 (2008) 58 (2006) 1490 61 73 120 308 917 1770 1920 4630 5620
2020-07-13 02:45 8.00 622 6300 (2008) 58 (2006) 1490 61 73 120 308 917 1770 1920 4630 5620
2020-07-13 01:45 8.50 782 6300 (2008) 58 (2006) 1490 61 73 120 308 917 1770 1920 4630 5620
2020-07-13 00:45 9.09 989 6300 (2008) 58 (2006) 1490 61 73 120 308 917 1770 1920 4630 5620
2020-07-12 23:45 9.79 1260 6220 (2008) 57 (2006) 1520 61 69 101 121 907 2350 2710 4870 5120
2020-07-12 22:45 10.60 1610 6220 (2008) 57 (2006) 1520 61 69 101 121 907 2350 2710 4870 5120
2020-07-12 21:45 11.54 2080 6220 (2008) 57 (2006) 1520 61 69 101 121 907 2350 2710 4870 5120
2020-07-12 20:45 12.56 2660 6220 (2008) 57 (2006) 1520 61 69 101 121 907 2350 2710 4870 5120
2020-07-12 19:45 13.53 3270 6220 (2008) 57 (2006) 1520 61 69 101 121 907 2350 2710 4870 5120
2020-07-12 18:45 13.89 3510 6220 (2008) 57 (2006) 1520 61 69 101 121 907 2350 2710 4870 5120
2020-07-12 17:45 11.46 2040 6220 (2008) 57 (2006) 1520 61 69 101 121 907 2350 2710 4870 5120
2020-07-12 16:45 7.22 403 6220 (2008) 57 (2006) 1520 61 69 101 121 907 2350 2710 4870 5120
2020-07-12 15:45 6.38 195 6220 (2008) 57 (2006) 1520 61 69 101 121 907 2350 2710 4870 5120
2020-07-12 14:45 6.38 195 6220 (2008) 57 (2006) 1520 61 69 101 121 907 2350 2710 4870 5120
2020-07-12 13:45 6.39 198 6220 (2008) 57 (2006) 1520 61 69 101 121 907 2350 2710 4870 5120
2020-07-12 12:45 6.40 200 6220 (2008) 57 (2006) 1520 61 69 101 121 907 2350 2710 4870 5120
2020-07-12 11:45 6.40 200 6220 (2008) 57 (2006) 1520 61 69 101 121 907 2350 2710 4870 5120
2020-07-12 10:45 6.41 202 6220 (2008) 57 (2006) 1520 61 69 101 121 907 2350 2710 4870 5120
2020-07-12 09:45 6.40 200 6220 (2008) 57 (2006) 1520 61 69 101 121 907 2350 2710 4870 5120
2020-07-12 08:45 6.40 200 6220 (2008) 57 (2006) 1520 61 69 101 121 907 2350 2710 4870 5120
2020-07-12 07:45 6.40 200 6220 (2008) 57 (2006) 1520 61 69 101 121 907 2350 2710 4870 5120
2020-07-12 06:45 6.40 200 6220 (2008) 57 (2006) 1520 61 69 101 121 907 2350 2710 4870 5120
2020-07-12 05:45 6.39 198 6220 (2008) 57 (2006) 1520 61 69 101 121 907 2350 2710 4870 5120
2020-07-12 04:45 6.39 198 6220 (2008) 57 (2006) 1520 61 69 101 121 907 2350 2710 4870 5120
2020-07-12 03:45 6.39 198 6220 (2008) 57 (2006) 1520 61 69 101 121 907 2350 2710 4870 5120
2020-07-12 02:45 6.39 198 6220 (2008) 57 (2006) 1520 61 69 101 121 907 2350 2710 4870 5120
2020-07-12 01:45 6.39 198 6220 (2008) 57 (2006) 1520 61 69 101 121 907 2350 2710 4870 5120
2020-07-12 00:45 6.39 198 6220 (2008) 57 (2006) 1520 61 69 101 121 907 2350 2710 4870 5120
2020-07-11 23:45 6.39 198 6360 (2008) 55 (2006) 1530 59 72 123 225 1010 2320 2500 4760 5210
2020-07-11 22:45 6.39 198 6360 (2008) 55 (2006) 1530 59 72 123 225 1010 2320 2500 4760 5210
2020-07-11 21:45 6.40 200 6360 (2008) 55 (2006) 1530 59 72 123 225 1010 2320 2500 4760 5210
2020-07-11 20:45 6.40 200 6360 (2008) 55 (2006) 1530 59 72 123 225 1010 2320 2500 4760 5210
2020-07-11 19:45 6.41 202 6360 (2008) 55 (2006) 1530 59 72 123 225 1010 2320 2500 4760 5210
2020-07-11 18:45 6.43 207 6360 (2008) 55 (2006) 1530 59 72 123 225 1010 2320 2500 4760 5210
2020-07-11 17:45 6.44 209 6360 (2008) 55 (2006) 1530 59 72 123 225 1010 2320 2500 4760 5210
2020-07-11 16:45 6.46 214 6360 (2008) 55 (2006) 1530 59 72 123 225 1010 2320 2500 4760 5210
2020-07-11 15:45 6.48 219 6360 (2008) 55 (2006) 1530 59 72 123 225 1010 2320 2500 4760 5210
2020-07-11 14:45 6.50 223 6360 (2008) 55 (2006) 1530 59 72 123 225 1010 2320 2500 4760 5210
2020-07-11 13:45 6.53 230 6360 (2008) 55 (2006) 1530 59 72 123 225 1010 2320 2500 4760 5210
2020-07-11 12:45 6.56 237 6360 (2008) 55 (2006) 1530 59 72 123 225 1010 2320 2500 4760 5210
2020-07-11 11:45 6.62 251 6360 (2008) 55 (2006) 1530 59 72 123 225 1010 2320 2500 4760 5210
2020-07-11 10:45 6.68 266 6360 (2008) 55 (2006) 1530 59 72 123 225 1010 2320 2500 4760 5210
2020-07-11 09:45 6.78 292 6360 (2008) 55 (2006) 1530 59 72 123 225 1010 2320 2500 4760 5210
2020-07-11 08:45 6.91 326 6360 (2008) 55 (2006) 1530 59 72 123 225 1010 2320 2500 4760 5210
2020-07-11 07:45 7.09 370 6360 (2008) 55 (2006) 1530 59 72 123 225 1010 2320 2500 4760 5210
2020-07-11 06:45 7.34 434 6360 (2008) 55 (2006) 1530 59 72 123 225 1010 2320 2500 4760 5210
2020-07-11 05:45 7.66 522 6360 (2008) 55 (2006) 1530 59 72 123 225 1010 2320 2500 4760 5210
2020-07-11 04:45 8.07 644 6360 (2008) 55 (2006) 1530 59 72 123 225 1010 2320 2500 4760 5210
2020-07-11 03:45 8.58 809 6360 (2008) 55 (2006) 1530 59 72 123 225 1010 2320 2500 4760 5210
2020-07-11 02:45 9.20 1030 6360 (2008) 55 (2006) 1530 59 72 123 225 1010 2320 2500 4760 5210
2020-07-11 01:45 9.93 1320 6360 (2008) 55 (2006) 1530 59 72 123 225 1010 2320 2500 4760 5210
2020-07-11 00:45 10.79 1700 6360 (2008) 55 (2006) 1530 59 72 123 225 1010 2320 2500 4760 5210
2020-07-10 23:45 11.80 2220 6400 (2008) 56 (1978) 1510 58 72 117 134 864 2310 2550 4830 5220
2020-07-10 22:45 12.94 2890 6400 (2008) 56 (1978) 1510 58 72 117 134 864 2310 2550 4830 5220
2020-07-10 21:45 14.17 3700 6400 (2008) 56 (1978) 1510 58 72 117 134 864 2310 2550 4830 5220
2020-07-10 20:45 15.45 4630 6400 (2008) 56 (1978) 1510 58 72 117 134 864 2310 2550 4830 5220
2020-07-10 19:45 16.51 5470 6400 (2008) 56 (1978) 1510 58 72 117 134 864 2310 2550 4830 5220
2020-07-10 18:45 16.18 5200 6400 (2008) 56 (1978) 1510 58 72 117 134 864 2310 2550 4830 5220
2020-07-10 17:45 15.48 4650 6400 (2008) 56 (1978) 1510 58 72 117 134 864 2310 2550 4830 5220
2020-07-10 16:45 14.33 3810 6400 (2008) 56 (1978) 1510 58 72 117 134 864 2310 2550 4830 5220
2020-07-10 15:45 11.83 2240 6400 (2008) 56 (1978) 1510 58 72 117 134 864 2310 2550 4830 5220
2020-07-10 14:45 7.58 499 6400 (2008) 56 (1978) 1510 58 72 117 134 864 2310 2550 4830 5220
2020-07-10 13:45 6.54 233 6400 (2008) 56 (1978) 1510 58 72 117 134 864 2310 2550 4830 5220
2020-07-10 12:45 6.57 240 6400 (2008) 56 (1978) 1510 58 72 117 134 864 2310 2550 4830 5220
2020-07-10 11:45 6.62 251 6400 (2008) 56 (1978) 1510 58 72 117 134 864 2310 2550 4830 5220
2020-07-10 10:45 6.69 269 6400 (2008) 56 (1978) 1510 58 72 117 134 864 2310 2550 4830 5220
2020-07-10 09:45 6.78 292 6400 (2008) 56 (1978) 1510 58 72 117 134 864 2310 2550 4830 5220
2020-07-10 08:45 6.90 324 6400 (2008) 56 (1978) 1510 58 72 117 134 864 2310 2550 4830 5220
2020-07-10 07:45 7.07 365 6400 (2008) 56 (1978) 1510 58 72 117 134 864 2310 2550 4830 5220
2020-07-10 06:45 7.30 424 6400 (2008) 56 (1978) 1510 58 72 117 134 864 2310 2550 4830 5220
2020-07-10 05:45 7.61 508 6400 (2008) 56 (1978) 1510 58 72 117 134 864 2310 2550 4830 5220
2020-07-10 04:45 8.00 622 6400 (2008) 56 (1978) 1510 58 72 117 134 864 2310 2550 4830 5220
2020-07-10 03:45 8.50 782 6400 (2008) 56 (1978) 1510 58 72 117 134 864 2310 2550 4830 5220
2020-07-10 02:45 9.10 993 6400 (2008) 56 (1978) 1510 58 72 117 134 864 2310 2550 4830 5220
2020-07-10 01:45 9.80 1270 6400 (2008) 56 (1978) 1510 58 72 117 134 864 2310 2550 4830 5220
2020-07-10 00:45 10.64 1630 6400 (2008) 56 (1978) 1510 58 72 117 134 864 2310 2550 4830 5220
2020-07-09 23:45 11.62 2120 6350 (2008) 54 (2006) 1460 58 66 137 266 1010 1900 2140 4580 5140
2020-07-09 22:45 12.73 2760 6350 (2008) 54 (2006) 1460 58 66 137 266 1010 1900 2140 4580 5140
2020-07-09 21:45 13.94 3540 6350 (2008) 54 (2006) 1460 58 66 137 266 1010 1900 2140 4580 5140
2020-07-09 20:45 15.18 4430 6350 (2008) 54 (2006) 1460 58 66 137 266 1010 1900 2140 4580 5140
2020-07-09 19:45 16.19 5210 6350 (2008) 54 (2006) 1460 58 66 137 266 1010 1900 2140 4580 5140
2020-07-09 18:45 15.80 4900 6350 (2008) 54 (2006) 1460 58 66 137 266 1010 1900 2140 4580 5140
2020-07-09 17:45 14.92 4230 6350 (2008) 54 (2006) 1460 58 66 137 266 1010 1900 2140 4580 5140
2020-07-09 16:45 13.49 3240 6350 (2008) 54 (2006) 1460 58 66 137 266 1010 1900 2140 4580 5140
2020-07-09 15:45 11.14 1870 6350 (2008) 54 (2006) 1460 58 66 137 266 1010 1900 2140 4580 5140
2020-07-09 14:45 6.97 341 6350 (2008) 54 (2006) 1460 58 66 137 266 1010 1900 2140 4580 5140
2020-07-09 13:45 6.55 235 6350 (2008) 54 (2006) 1460 58 66 137 266 1010 1900 2140 4580 5140
2020-07-09 12:45 6.58 242 6350 (2008) 54 (2006) 1460 58 66 137 266 1010 1900 2140 4580 5140
2020-07-09 11:45 6.63 254 6350 (2008) 54 (2006) 1460 58 66 137 266 1010 1900 2140 4580 5140
2020-07-09 10:45 6.68 266 6350 (2008) 54 (2006) 1460 58 66 137 266 1010 1900 2140 4580 5140
2020-07-09 09:45 6.78 292 6350 (2008) 54 (2006) 1460 58 66 137 266 1010 1900 2140 4580 5140
2020-07-09 08:45 6.90 324 6350 (2008) 54 (2006) 1460 58 66 137 266 1010 1900 2140 4580 5140
2020-07-09 07:45 7.07 365 6350 (2008) 54 (2006) 1460 58 66 137 266 1010 1900 2140 4580 5140
2020-07-09 06:45 7.30 424 6350 (2008) 54 (2006) 1460 58 66 137 266 1010 1900 2140 4580 5140
2020-07-09 05:45 7.61 508 6350 (2008) 54 (2006) 1460 58 66 137 266 1010 1900 2140 4580 5140
2020-07-09 04:45 8.01 625 6350 (2008) 54 (2006) 1460 58 66 137 266 1010 1900 2140 4580 5140
2020-07-09 03:45 8.51 785 6350 (2008) 54 (2006) 1460 58 66 137 266 1010 1900 2140 4580 5140
2020-07-09 02:45 9.11 996 6350 (2008) 54 (2006) 1460 58 66 137 266 1010 1900 2140 4580 5140
2020-07-09 01:45 9.83 1280 6350 (2008) 54 (2006) 1460 58 66 137 266 1010 1900 2140 4580 5140
2020-07-09 00:45 10.67 1650 6350 (2008) 54 (2006) 1460 58 66 137 266 1010 1900 2140 4580 5140
2020-07-08 23:45 11.66 2150 6340 (2008) 54 (2006) 1530 59 79 338 557 939 2050 2320 4110 5120
2020-07-08 22:45 12.78 2790 6340 (2008) 54 (2006) 1530 59 79 338 557 939 2050 2320 4110 5120
2020-07-08 21:45 14.00 3580 6340 (2008) 54 (2006) 1530 59 79 338 557 939 2050 2320 4110 5120
2020-07-08 20:45 15.25 4480 6340 (2008) 54 (2006) 1530 59 79 338 557 939 2050 2320 4110 5120
2020-07-08 19:45 16.27 5270 6340 (2008) 54 (2006) 1530 59 79 338 557 939 2050 2320 4110 5120
2020-07-08 18:45 15.94 5010 6340 (2008) 54 (2006) 1530 59 79 338 557 939 2050 2320 4110 5120
2020-07-08 17:45 15.13 4390 6340 (2008) 54 (2006) 1530 59 79 338 557 939 2050 2320 4110 5120
2020-07-08 16:45 13.83 3470 6340 (2008) 54 (2006) 1530 59 79 338 557 939 2050 2320 4110 5120
2020-07-08 15:45 11.07 1840 6340 (2008) 54 (2006) 1530 59 79 338 557 939 2050 2320 4110 5120
2020-07-08 14:45 6.86 314 6340 (2008) 54 (2006) 1530 59 79 338 557 939 2050 2320 4110 5120
2020-07-08 13:45 6.49 221 6340 (2008) 54 (2006) 1530 59 79 338 557 939 2050 2320 4110 5120
2020-07-08 12:45 6.53 230 6340 (2008) 54 (2006) 1530 59 79 338 557 939 2050 2320 4110 5120
2020-07-08 11:45 6.59 244 6340 (2008) 54 (2006) 1530 59 79 338 557 939 2050 2320 4110 5120
2020-07-08 10:45 6.66 261 6340 (2008) 54 (2006) 1530 59 79 338 557 939 2050 2320 4110 5120
2020-07-08 09:45 6.76 287 6340 (2008) 54 (2006) 1530 59 79 338 557 939 2050 2320 4110 5120
2020-07-08 08:45 6.89 322 6340 (2008) 54 (2006) 1530 59 79 338 557 939 2050 2320 4110 5120
2020-07-08 07:45 7.07 365 6340 (2008) 54 (2006) 1530 59 79 338 557 939 2050 2320 4110 5120
2020-07-08 06:45 7.32 429 6340 (2008) 54 (2006) 1530 59 79 338 557 939 2050 2320 4110 5120
2020-07-08 05:45 7.64 516 6340 (2008) 54 (2006) 1530 59 79 338 557 939 2050 2320 4110 5120
2020-07-08 04:45 8.06 640 6340 (2008) 54 (2006) 1530 59 79 338 557 939 2050 2320 4110 5120
2020-07-08 03:45 8.58 809 6340 (2008) 54 (2006) 1530 59 79 338 557 939 2050 2320 4110 5120
2020-07-08 02:45 9.19 1030 6340 (2008) 54 (2006) 1530 59 79 338 557 939 2050 2320 4110 5120
2020-07-08 01:45 9.93 1320 6340 (2008) 54 (2006) 1530 59 79 338 557 939 2050 2320 4110 5120
2020-07-08 00:45 10.79 1700 6340 (2008) 54 (2006) 1530 59 79 338 557 939 2050 2320 4110 5120
2020-07-07 23:45 11.81 2230 5200 (2008) 55 (2006) 1310 63 83 180 228 850 1760 1930 4120 5090
2020-07-07 22:45 12.95 2900 5200 (2008) 55 (2006) 1310 63 83 180 228 850 1760 1930 4120 5090
2020-07-07 21:45 14.20 3720 5200 (2008) 55 (2006) 1310 63 83 180 228 850 1760 1930 4120 5090
2020-07-07 20:45 15.49 4660 5200 (2008) 55 (2006) 1310 63 83 180 228 850 1760 1930 4120 5090
2020-07-07 19:45 16.57 5520 5200 (2008) 55 (2006) 1310 63 83 180 228 850 1760 1930 4120 5090
2020-07-07 18:45 16.37 5350 5200 (2008) 55 (2006) 1310 63 83 180 228 850 1760 1930 4120 5090
2020-07-07 17:45 15.80 4900 5200 (2008) 55 (2006) 1310 63 83 180 228 850 1760 1930 4120 5090
2020-07-07 16:45 14.97 4270 5200 (2008) 55 (2006) 1310 63 83 180 228 850 1760 1930 4120 5090
2020-07-07 15:45 13.62 3330 5200 (2008) 55 (2006) 1310 63 83 180 228 850 1760 1930 4120 5090
2020-07-07 14:45 11.25 1930 5200 (2008) 55 (2006) 1310 63 83 180 228 850 1760 1930 4120 5090
2020-07-07 13:45 7.17 390 5200 (2008) 55 (2006) 1310 63 83 180 228 850 1760 1930 4120 5090
2020-07-07 12:45 6.68 266 5200 (2008) 55 (2006) 1310 63 83 180 228 850 1760 1930 4120 5090
2020-07-07 11:45 6.79 295 5200 (2008) 55 (2006) 1310 63 83 180 228 850 1760 1930 4120 5090
2020-07-07 10:45 6.94 334 5200 (2008) 55 (2006) 1310 63 83 180 228 850 1760 1930 4120 5090
2020-07-07 09:45 7.14 382 5200 (2008) 55 (2006) 1310 63 83 180 228 850 1760 1930 4120 5090
2020-07-07 08:45 7.39 447 5200 (2008) 55 (2006) 1310 63 83 180 228 850 1760 1930 4120 5090
2020-07-07 07:45 7.73 542 5200 (2008) 55 (2006) 1310 63 83 180 228 850 1760 1930 4120 5090
2020-07-07 06:45 8.17 675 5200 (2008) 55 (2006) 1310 63 83 180 228 850 1760 1930 4120 5090
2020-07-07 05:45 8.70 850 5200 (2008) 55 (2006) 1310 63 83 180 228 850 1760 1930 4120 5090
2020-07-07 04:45 9.35 1090 5200 (2008) 55 (2006) 1310 63 83 180 228 850 1760 1930 4120 5090
2020-07-07 03:45 10.11 1400 5200 (2008) 55 (2006) 1310 63 83 180 228 850 1760 1930 4120 5090
2020-07-07 02:45 11.00 1800 5200 (2008) 55 (2006) 1310 63 83 180 228 850 1760 1930 4120 5090
2020-07-07 01:45 12.05 2360 5200 (2008) 55 (2006) 1310 63 83 180 228 850 1760 1930 4120 5090
2020-07-07 00:45 13.23 3080 5200 (2008) 55 (2006) 1310 63 83 180 228 850 1760 1930 4120 5090

A total of 731 rows are displayed for years 1974 through 2019.